<?xml version="1.0" encoding="UTF-8" standalone="no" ?>
<gpx xmlns="http://www.topografix.com/GPX/1/1" xmlns:xsi="http://www.w3.org/2001/XMLSchema-instance" xsi:schemaLocation="http://www.topografix.com/GPX/1/1 http://www.topografix.com/GPX/1/1/gpx.xsd" version="1.1" creator="VisuGPX - https://www.visugpx.com">
  <metadata>
    <name>13863423-CMJ 2022 off</name>
  </metadata>
  <trk>
    <name><![CDATA[13863423-CMJ 2022 off]]></name>
    <extensions>
      <line xmlns="http://www.topografix.com/GPX/gpx_style/0/2">
        <color>0000FF</color>
        <width>4</width>
      </line>
    </extensions>
    <trkseg>
      <trkpt lat="46.678" lon="5.53468">
        <ele>244</ele>
        <time>2022-04-04T10:10:28Z</time>
      </trkpt>
      <trkpt lat="46.6777" lon="5.53585">
        <ele>243</ele>
        <time>2022-04-04T10:10:43Z</time>
      </trkpt>
      <trkpt lat="46.67757" lon="5.53629">
        <ele>242</ele>
        <time>2022-04-04T10:10:49Z</time>
      </trkpt>
      <trkpt lat="46.67742" lon="5.53668">
        <ele>242</ele>
        <time>2022-04-04T10:10:54Z</time>
      </trkpt>
      <trkpt lat="46.67697" lon="5.53757">
        <ele>242</ele>
        <time>2022-04-04T10:11:08Z</time>
      </trkpt>
      <trkpt lat="46.67689" lon="5.53775">
        <ele>242</ele>
        <time>2022-04-04T10:11:10Z</time>
      </trkpt>
      <trkpt lat="46.67686" lon="5.53774">
        <ele>242</ele>
        <time>2022-04-04T10:11:11Z</time>
      </trkpt>
      <trkpt lat="46.67682" lon="5.53775">
        <ele>242</ele>
        <time>2022-04-04T10:11:12Z</time>
      </trkpt>
      <trkpt lat="46.6768" lon="5.53781">
        <ele>242</ele>
        <time>2022-04-04T10:11:13Z</time>
      </trkpt>
      <trkpt lat="46.67682" lon="5.53788">
        <ele>242</ele>
        <time>2022-04-04T10:11:13Z</time>
      </trkpt>
      <trkpt lat="46.67671" lon="5.53804">
        <ele>242</ele>
        <time>2022-04-04T10:11:16Z</time>
      </trkpt>
      <trkpt lat="46.67665" lon="5.53819">
        <ele>242</ele>
        <time>2022-04-04T10:11:18Z</time>
      </trkpt>
      <trkpt lat="46.67659" lon="5.53841">
        <ele>242</ele>
        <time>2022-04-04T10:11:21Z</time>
      </trkpt>
      <trkpt lat="46.67638" lon="5.53989">
        <ele>243</ele>
        <time>2022-04-04T10:11:40Z</time>
      </trkpt>
      <trkpt lat="46.67631" lon="5.54019">
        <ele>243</ele>
        <time>2022-04-04T10:11:44Z</time>
      </trkpt>
      <trkpt lat="46.67622" lon="5.54046">
        <ele>243</ele>
        <time>2022-04-04T10:11:47Z</time>
      </trkpt>
      <trkpt lat="46.67588" lon="5.54121">
        <ele>244</ele>
        <time>2022-04-04T10:11:58Z</time>
      </trkpt>
      <trkpt lat="46.6758" lon="5.54133">
        <ele>245</ele>
        <time>2022-04-04T10:12:00Z</time>
      </trkpt>
      <trkpt lat="46.67571" lon="5.54135">
        <ele>245</ele>
        <time>2022-04-04T10:12:02Z</time>
      </trkpt>
      <trkpt lat="46.67566" lon="5.54111">
        <ele>244</ele>
        <time>2022-04-04T10:12:05Z</time>
      </trkpt>
      <trkpt lat="46.67567" lon="5.54149">
        <ele>245</ele>
        <time>2022-04-04T10:12:10Z</time>
      </trkpt>
      <trkpt lat="46.67556" lon="5.54185">
        <ele>245</ele>
        <time>2022-04-04T10:12:14Z</time>
      </trkpt>
      <trkpt lat="46.67542" lon="5.54248">
        <ele>246</ele>
        <time>2022-04-04T10:12:22Z</time>
      </trkpt>
      <trkpt lat="46.67543" lon="5.54265">
        <ele>246</ele>
        <time>2022-04-04T10:12:25Z</time>
      </trkpt>
      <trkpt lat="46.67543" lon="5.543">
        <ele>247</ele>
        <time>2022-04-04T10:12:29Z</time>
      </trkpt>
      <trkpt lat="46.67538" lon="5.54308">
        <ele>247</ele>
        <time>2022-04-04T10:12:30Z</time>
      </trkpt>
      <trkpt lat="46.67536" lon="5.54317">
        <ele>247</ele>
        <time>2022-04-04T10:12:31Z</time>
      </trkpt>
      <trkpt lat="46.67536" lon="5.54328">
        <ele>247</ele>
        <time>2022-04-04T10:12:33Z</time>
      </trkpt>
      <trkpt lat="46.6754" lon="5.54336">
        <ele>247</ele>
        <time>2022-04-04T10:12:34Z</time>
      </trkpt>
      <trkpt lat="46.67548" lon="5.54343">
        <ele>247</ele>
        <time>2022-04-04T10:12:35Z</time>
      </trkpt>
      <trkpt lat="46.67558" lon="5.54342">
        <ele>247</ele>
        <time>2022-04-04T10:12:37Z</time>
      </trkpt>
      <trkpt lat="46.67561" lon="5.54364">
        <ele>247</ele>
        <time>2022-04-04T10:12:40Z</time>
      </trkpt>
      <trkpt lat="46.67558" lon="5.54373">
        <ele>247</ele>
        <time>2022-04-04T10:12:41Z</time>
      </trkpt>
      <trkpt lat="46.6751" lon="5.54467">
        <ele>247</ele>
        <time>2022-04-04T10:12:56Z</time>
      </trkpt>
      <trkpt lat="46.67508" lon="5.54479">
        <ele>247</ele>
        <time>2022-04-04T10:12:57Z</time>
      </trkpt>
      <trkpt lat="46.67501" lon="5.5468">
        <ele>249</ele>
        <time>2022-04-04T10:13:22Z</time>
      </trkpt>
      <trkpt lat="46.67502" lon="5.54702">
        <ele>250</ele>
        <time>2022-04-04T10:13:24Z</time>
      </trkpt>
      <trkpt lat="46.67496" lon="5.54706">
        <ele>250</ele>
        <time>2022-04-04T10:13:25Z</time>
      </trkpt>
      <trkpt lat="46.67492" lon="5.54717">
        <ele>250</ele>
        <time>2022-04-04T10:13:27Z</time>
      </trkpt>
      <trkpt lat="46.67494" lon="5.54729">
        <ele>250</ele>
        <time>2022-04-04T10:13:29Z</time>
      </trkpt>
      <trkpt lat="46.67501" lon="5.54738">
        <ele>250</ele>
        <time>2022-04-04T10:13:30Z</time>
      </trkpt>
      <trkpt lat="46.67503" lon="5.54768">
        <ele>251</ele>
        <time>2022-04-04T10:13:34Z</time>
      </trkpt>
      <trkpt lat="46.67503" lon="5.54835">
        <ele>252</ele>
        <time>2022-04-04T10:13:42Z</time>
      </trkpt>
      <trkpt lat="46.67511" lon="5.54887">
        <ele>252</ele>
        <time>2022-04-04T10:13:49Z</time>
      </trkpt>
      <trkpt lat="46.67509" lon="5.5497">
        <ele>251</ele>
        <time>2022-04-04T10:13:59Z</time>
      </trkpt>
      <trkpt lat="46.67516" lon="5.54996">
        <ele>251</ele>
        <time>2022-04-04T10:14:02Z</time>
      </trkpt>
      <trkpt lat="46.67542" lon="5.55061">
        <ele>252</ele>
        <time>2022-04-04T10:14:11Z</time>
      </trkpt>
      <trkpt lat="46.67578" lon="5.55178">
        <ele>253</ele>
        <time>2022-04-04T10:14:27Z</time>
      </trkpt>
      <trkpt lat="46.67569" lon="5.55248">
        <ele>255</ele>
        <time>2022-04-04T10:14:36Z</time>
      </trkpt>
      <trkpt lat="46.6756" lon="5.55307">
        <ele>257</ele>
        <time>2022-04-04T10:14:43Z</time>
      </trkpt>
      <trkpt lat="46.67561" lon="5.55373">
        <ele>259</ele>
        <time>2022-04-04T10:14:51Z</time>
      </trkpt>
      <trkpt lat="46.67563" lon="5.55381">
        <ele>259</ele>
        <time>2022-04-04T10:14:52Z</time>
      </trkpt>
      <trkpt lat="46.67615" lon="5.55376">
        <ele>258</ele>
        <time>2022-04-04T10:15:01Z</time>
      </trkpt>
      <trkpt lat="46.67618" lon="5.5538">
        <ele>258</ele>
        <time>2022-04-04T10:15:02Z</time>
      </trkpt>
      <trkpt lat="46.67622" lon="5.55388">
        <ele>258</ele>
        <time>2022-04-04T10:15:03Z</time>
      </trkpt>
      <trkpt lat="46.67624" lon="5.55405">
        <ele>258</ele>
        <time>2022-04-04T10:15:05Z</time>
      </trkpt>
      <trkpt lat="46.67618" lon="5.55479">
        <ele>260</ele>
        <time>2022-04-04T10:15:14Z</time>
      </trkpt>
      <trkpt lat="46.67622" lon="5.55494">
        <ele>261</ele>
        <time>2022-04-04T10:15:16Z</time>
      </trkpt>
      <trkpt lat="46.6763" lon="5.555">
        <ele>261</ele>
        <time>2022-04-04T10:15:18Z</time>
      </trkpt>
      <trkpt lat="46.67672" lon="5.55509">
        <ele>260</ele>
        <time>2022-04-04T10:15:26Z</time>
      </trkpt>
      <trkpt lat="46.67691" lon="5.5551">
        <ele>259</ele>
        <time>2022-04-04T10:15:29Z</time>
      </trkpt>
      <trkpt lat="46.6775" lon="5.55509">
        <ele>256</ele>
        <time>2022-04-04T10:15:39Z</time>
      </trkpt>
      <trkpt lat="46.67753" lon="5.55565">
        <ele>257</ele>
        <time>2022-04-04T10:15:46Z</time>
      </trkpt>
      <trkpt lat="46.67753" lon="5.55621">
        <ele>257</ele>
        <time>2022-04-04T10:15:53Z</time>
      </trkpt>
      <trkpt lat="46.67751" lon="5.55646">
        <ele>257</ele>
        <time>2022-04-04T10:15:56Z</time>
      </trkpt>
      <trkpt lat="46.67748" lon="5.55664">
        <ele>257</ele>
        <time>2022-04-04T10:15:59Z</time>
      </trkpt>
      <trkpt lat="46.67741" lon="5.55687">
        <ele>258</ele>
        <time>2022-04-04T10:16:02Z</time>
      </trkpt>
      <trkpt lat="46.67736" lon="5.55695">
        <ele>258</ele>
        <time>2022-04-04T10:16:03Z</time>
      </trkpt>
      <trkpt lat="46.67729" lon="5.55693">
        <ele>258</ele>
        <time>2022-04-04T10:16:04Z</time>
      </trkpt>
      <trkpt lat="46.67726" lon="5.55696">
        <ele>259</ele>
        <time>2022-04-04T10:16:05Z</time>
      </trkpt>
      <trkpt lat="46.67723" lon="5.55703">
        <ele>259</ele>
        <time>2022-04-04T10:16:06Z</time>
      </trkpt>
      <trkpt lat="46.67725" lon="5.5571">
        <ele>259</ele>
        <time>2022-04-04T10:16:07Z</time>
      </trkpt>
      <trkpt lat="46.6773" lon="5.55715">
        <ele>259</ele>
        <time>2022-04-04T10:16:08Z</time>
      </trkpt>
      <trkpt lat="46.67735" lon="5.55713">
        <ele>258</ele>
        <time>2022-04-04T10:16:09Z</time>
      </trkpt>
      <trkpt lat="46.67745" lon="5.55726">
        <ele>258</ele>
        <time>2022-04-04T10:16:11Z</time>
      </trkpt>
      <trkpt lat="46.67784" lon="5.55803">
        <ele>260</ele>
        <time>2022-04-04T10:16:23Z</time>
      </trkpt>
      <trkpt lat="46.67794" lon="5.55812">
        <ele>260</ele>
        <time>2022-04-04T10:16:25Z</time>
      </trkpt>
      <trkpt lat="46.67884" lon="5.55877">
        <ele>260</ele>
        <time>2022-04-04T10:16:43Z</time>
      </trkpt>
      <trkpt lat="46.67895" lon="5.55892">
        <ele>261</ele>
        <time>2022-04-04T10:16:45Z</time>
      </trkpt>
      <trkpt lat="46.67988" lon="5.55942">
        <ele>262</ele>
        <time>2022-04-04T10:17:03Z</time>
      </trkpt>
      <trkpt lat="46.67998" lon="5.5595">
        <ele>261</ele>
        <time>2022-04-04T10:17:05Z</time>
      </trkpt>
      <trkpt lat="46.68008" lon="5.55961">
        <ele>261</ele>
        <time>2022-04-04T10:17:07Z</time>
      </trkpt>
      <trkpt lat="46.68037" lon="5.56005">
        <ele>262</ele>
        <time>2022-04-04T10:17:15Z</time>
      </trkpt>
      <trkpt lat="46.68044" lon="5.56019">
        <ele>262</ele>
        <time>2022-04-04T10:17:17Z</time>
      </trkpt>
      <trkpt lat="46.68063" lon="5.56097">
        <ele>263</ele>
        <time>2022-04-04T10:17:27Z</time>
      </trkpt>
      <trkpt lat="46.68072" lon="5.56141">
        <ele>265</ele>
        <time>2022-04-04T10:17:33Z</time>
      </trkpt>
      <trkpt lat="46.68096" lon="5.56227">
        <ele>269</ele>
        <time>2022-04-04T10:17:44Z</time>
      </trkpt>
      <trkpt lat="46.68106" lon="5.56249">
        <ele>269</ele>
        <time>2022-04-04T10:17:47Z</time>
      </trkpt>
      <trkpt lat="46.68143" lon="5.56302">
        <ele>269</ele>
        <time>2022-04-04T10:17:56Z</time>
      </trkpt>
      <trkpt lat="46.68183" lon="5.56366">
        <ele>270</ele>
        <time>2022-04-04T10:18:07Z</time>
      </trkpt>
      <trkpt lat="46.68187" lon="5.56377">
        <ele>270</ele>
        <time>2022-04-04T10:18:09Z</time>
      </trkpt>
      <trkpt lat="46.6822" lon="5.56421">
        <ele>269</ele>
        <time>2022-04-04T10:18:16Z</time>
      </trkpt>
      <trkpt lat="46.68226" lon="5.56425">
        <ele>268</ele>
        <time>2022-04-04T10:18:18Z</time>
      </trkpt>
      <trkpt lat="46.68291" lon="5.5653">
        <ele>269</ele>
        <time>2022-04-04T10:18:35Z</time>
      </trkpt>
      <trkpt lat="46.68289" lon="5.56531">
        <ele>270</ele>
        <time>2022-04-04T10:18:35Z</time>
      </trkpt>
      <trkpt lat="46.68291" lon="5.5653">
        <ele>269</ele>
        <time>2022-04-04T10:18:36Z</time>
      </trkpt>
      <trkpt lat="46.68297" lon="5.5654">
        <ele>270</ele>
        <time>2022-04-04T10:18:37Z</time>
      </trkpt>
      <trkpt lat="46.68299" lon="5.56548">
        <ele>270</ele>
        <time>2022-04-04T10:18:38Z</time>
      </trkpt>
      <trkpt lat="46.68315" lon="5.56582">
        <ele>272</ele>
        <time>2022-04-04T10:18:43Z</time>
      </trkpt>
      <trkpt lat="46.68328" lon="5.56631">
        <ele>274</ele>
        <time>2022-04-04T10:18:50Z</time>
      </trkpt>
      <trkpt lat="46.68363" lon="5.56689">
        <ele>276</ele>
        <time>2022-04-04T10:18:59Z</time>
      </trkpt>
      <trkpt lat="46.68377" lon="5.56725">
        <ele>276</ele>
        <time>2022-04-04T10:19:04Z</time>
      </trkpt>
      <trkpt lat="46.68389" lon="5.56756">
        <ele>276</ele>
        <time>2022-04-04T10:19:09Z</time>
      </trkpt>
      <trkpt lat="46.68409" lon="5.56802">
        <ele>276</ele>
        <time>2022-04-04T10:19:15Z</time>
      </trkpt>
      <trkpt lat="46.68414" lon="5.56824">
        <ele>276</ele>
        <time>2022-04-04T10:19:18Z</time>
      </trkpt>
      <trkpt lat="46.68414" lon="5.56839">
        <ele>276</ele>
        <time>2022-04-04T10:19:20Z</time>
      </trkpt>
      <trkpt lat="46.68407" lon="5.569">
        <ele>277</ele>
        <time>2022-04-04T10:19:27Z</time>
      </trkpt>
      <trkpt lat="46.68407" lon="5.56925">
        <ele>278</ele>
        <time>2022-04-04T10:19:31Z</time>
      </trkpt>
      <trkpt lat="46.68413" lon="5.56949">
        <ele>277</ele>
        <time>2022-04-04T10:19:34Z</time>
      </trkpt>
      <trkpt lat="46.68446" lon="5.57059">
        <ele>274</ele>
        <time>2022-04-04T10:19:48Z</time>
      </trkpt>
      <trkpt lat="46.68451" lon="5.57087">
        <ele>274</ele>
        <time>2022-04-04T10:19:52Z</time>
      </trkpt>
      <trkpt lat="46.68453" lon="5.57126">
        <ele>275</ele>
        <time>2022-04-04T10:19:57Z</time>
      </trkpt>
      <trkpt lat="46.68451" lon="5.57159">
        <ele>277</ele>
        <time>2022-04-04T10:20:01Z</time>
      </trkpt>
      <trkpt lat="46.68448" lon="5.57178">
        <ele>278</ele>
        <time>2022-04-04T10:20:03Z</time>
      </trkpt>
      <trkpt lat="46.68433" lon="5.57246">
        <ele>286</ele>
        <time>2022-04-04T10:20:12Z</time>
      </trkpt>
      <trkpt lat="46.68428" lon="5.57286">
        <ele>288</ele>
        <time>2022-04-04T10:20:17Z</time>
      </trkpt>
      <trkpt lat="46.68425" lon="5.574">
        <ele>290</ele>
        <time>2022-04-04T10:20:31Z</time>
      </trkpt>
      <trkpt lat="46.68415" lon="5.57512">
        <ele>290</ele>
        <time>2022-04-04T10:20:44Z</time>
      </trkpt>
      <trkpt lat="46.6841" lon="5.57532">
        <ele>290</ele>
        <time>2022-04-04T10:20:47Z</time>
      </trkpt>
      <trkpt lat="46.6839" lon="5.57578">
        <ele>291</ele>
        <time>2022-04-04T10:20:54Z</time>
      </trkpt>
      <trkpt lat="46.68371" lon="5.57595">
        <ele>292</ele>
        <time>2022-04-04T10:20:58Z</time>
      </trkpt>
      <trkpt lat="46.68341" lon="5.57613">
        <ele>294</ele>
        <time>2022-04-04T10:21:03Z</time>
      </trkpt>
      <trkpt lat="46.68273" lon="5.57637">
        <ele>296</ele>
        <time>2022-04-04T10:21:16Z</time>
      </trkpt>
      <trkpt lat="46.68336" lon="5.578">
        <ele>301</ele>
        <time>2022-04-04T10:21:39Z</time>
      </trkpt>
      <trkpt lat="46.68342" lon="5.57821">
        <ele>302</ele>
        <time>2022-04-04T10:21:41Z</time>
      </trkpt>
      <trkpt lat="46.68343" lon="5.57834">
        <ele>303</ele>
        <time>2022-04-04T10:21:43Z</time>
      </trkpt>
      <trkpt lat="46.68342" lon="5.57847">
        <ele>303</ele>
        <time>2022-04-04T10:21:45Z</time>
      </trkpt>
      <trkpt lat="46.68338" lon="5.57859">
        <ele>304</ele>
        <time>2022-04-04T10:21:46Z</time>
      </trkpt>
      <trkpt lat="46.68326" lon="5.57888">
        <ele>304</ele>
        <time>2022-04-04T10:21:50Z</time>
      </trkpt>
      <trkpt lat="46.6827" lon="5.5799">
        <ele>307</ele>
        <time>2022-04-04T10:22:06Z</time>
      </trkpt>
      <trkpt lat="46.68256" lon="5.58005">
        <ele>307</ele>
        <time>2022-04-04T10:22:09Z</time>
      </trkpt>
      <trkpt lat="46.68256" lon="5.58013">
        <ele>307</ele>
        <time>2022-04-04T10:22:10Z</time>
      </trkpt>
      <trkpt lat="46.68253" lon="5.58024">
        <ele>308</ele>
        <time>2022-04-04T10:22:12Z</time>
      </trkpt>
      <trkpt lat="46.68238" lon="5.58054">
        <ele>308</ele>
        <time>2022-04-04T10:22:16Z</time>
      </trkpt>
      <trkpt lat="46.68215" lon="5.58104">
        <ele>309</ele>
        <time>2022-04-04T10:22:24Z</time>
      </trkpt>
      <trkpt lat="46.68206" lon="5.58142">
        <ele>310</ele>
        <time>2022-04-04T10:22:29Z</time>
      </trkpt>
      <trkpt lat="46.68197" lon="5.58327">
        <ele>313</ele>
        <time>2022-04-04T10:22:51Z</time>
      </trkpt>
      <trkpt lat="46.68193" lon="5.58338">
        <ele>313</ele>
        <time>2022-04-04T10:22:53Z</time>
      </trkpt>
      <trkpt lat="46.68202" lon="5.58348">
        <ele>313</ele>
        <time>2022-04-04T10:22:55Z</time>
      </trkpt>
      <trkpt lat="46.68223" lon="5.58355">
        <ele>314</ele>
        <time>2022-04-04T10:22:59Z</time>
      </trkpt>
      <trkpt lat="46.68265" lon="5.58363">
        <ele>314</ele>
        <time>2022-04-04T10:23:06Z</time>
      </trkpt>
      <trkpt lat="46.68307" lon="5.58368">
        <ele>315</ele>
        <time>2022-04-04T10:23:14Z</time>
      </trkpt>
      <trkpt lat="46.6861" lon="5.58434">
        <ele>311</ele>
        <time>2022-04-04T10:24:08Z</time>
      </trkpt>
      <trkpt lat="46.68642" lon="5.58439">
        <ele>312</ele>
        <time>2022-04-04T10:24:14Z</time>
      </trkpt>
      <trkpt lat="46.68717" lon="5.58443">
        <ele>313</ele>
        <time>2022-04-04T10:24:27Z</time>
      </trkpt>
      <trkpt lat="46.68717" lon="5.58446">
        <ele>313</ele>
        <time>2022-04-04T10:24:28Z</time>
      </trkpt>
      <trkpt lat="46.68726" lon="5.58461">
        <ele>313</ele>
        <time>2022-04-04T10:24:30Z</time>
      </trkpt>
      <trkpt lat="46.68896" lon="5.58681">
        <ele>316</ele>
        <time>2022-04-04T10:25:11Z</time>
      </trkpt>
      <trkpt lat="46.68931" lon="5.58763">
        <ele>318</ele>
        <time>2022-04-04T10:25:22Z</time>
      </trkpt>
      <trkpt lat="46.68967" lon="5.58828">
        <ele>321</ele>
        <time>2022-04-04T10:25:33Z</time>
      </trkpt>
      <trkpt lat="46.68972" lon="5.58839">
        <ele>322</ele>
        <time>2022-04-04T10:25:34Z</time>
      </trkpt>
      <trkpt lat="46.68982" lon="5.58897">
        <ele>329</ele>
        <time>2022-04-04T10:25:41Z</time>
      </trkpt>
      <trkpt lat="46.68991" lon="5.58929">
        <ele>334</ele>
        <time>2022-04-04T10:25:46Z</time>
      </trkpt>
      <trkpt lat="46.69009" lon="5.58958">
        <ele>338</ele>
        <time>2022-04-04T10:25:50Z</time>
      </trkpt>
      <trkpt lat="46.69098" lon="5.5901">
        <ele>338</ele>
        <time>2022-04-04T10:26:07Z</time>
      </trkpt>
      <trkpt lat="46.69132" lon="5.59053">
        <ele>342</ele>
        <time>2022-04-04T10:26:15Z</time>
      </trkpt>
      <trkpt lat="46.69156" lon="5.59062">
        <ele>341</ele>
        <time>2022-04-04T10:26:20Z</time>
      </trkpt>
      <trkpt lat="46.69214" lon="5.59075">
        <ele>338</ele>
        <time>2022-04-04T10:26:30Z</time>
      </trkpt>
      <trkpt lat="46.69248" lon="5.59088">
        <ele>337</ele>
        <time>2022-04-04T10:26:37Z</time>
      </trkpt>
      <trkpt lat="46.6927" lon="5.59101">
        <ele>339</ele>
        <time>2022-04-04T10:26:41Z</time>
      </trkpt>
      <trkpt lat="46.69379" lon="5.59185">
        <ele>347</ele>
        <time>2022-04-04T10:27:03Z</time>
      </trkpt>
      <trkpt lat="46.69387" lon="5.59201">
        <ele>348</ele>
        <time>2022-04-04T10:27:05Z</time>
      </trkpt>
      <trkpt lat="46.694" lon="5.59256">
        <ele>351</ele>
        <time>2022-04-04T10:27:12Z</time>
      </trkpt>
      <trkpt lat="46.69429" lon="5.593">
        <ele>354</ele>
        <time>2022-04-04T10:27:20Z</time>
      </trkpt>
      <trkpt lat="46.69446" lon="5.59411">
        <ele>357</ele>
        <time>2022-04-04T10:27:34Z</time>
      </trkpt>
      <trkpt lat="46.69452" lon="5.59424">
        <ele>358</ele>
        <time>2022-04-04T10:27:36Z</time>
      </trkpt>
      <trkpt lat="46.695" lon="5.59467">
        <ele>362</ele>
        <time>2022-04-04T10:27:46Z</time>
      </trkpt>
      <trkpt lat="46.69543" lon="5.59562">
        <ele>371</ele>
        <time>2022-04-04T10:27:59Z</time>
      </trkpt>
      <trkpt lat="46.69553" lon="5.59575">
        <ele>372</ele>
        <time>2022-04-04T10:28:02Z</time>
      </trkpt>
      <trkpt lat="46.69587" lon="5.59584">
        <ele>370</ele>
        <time>2022-04-04T10:28:08Z</time>
      </trkpt>
      <trkpt lat="46.69596" lon="5.59593">
        <ele>371</ele>
        <time>2022-04-04T10:28:10Z</time>
      </trkpt>
      <trkpt lat="46.69667" lon="5.59697">
        <ele>383</ele>
        <time>2022-04-04T10:28:28Z</time>
      </trkpt>
      <trkpt lat="46.69669" lon="5.59705">
        <ele>383</ele>
        <time>2022-04-04T10:28:29Z</time>
      </trkpt>
      <trkpt lat="46.69731" lon="5.59746">
        <ele>386</ele>
        <time>2022-04-04T10:28:41Z</time>
      </trkpt>
      <trkpt lat="46.69755" lon="5.59768">
        <ele>387</ele>
        <time>2022-04-04T10:28:46Z</time>
      </trkpt>
      <trkpt lat="46.69788" lon="5.59789">
        <ele>388</ele>
        <time>2022-04-04T10:28:52Z</time>
      </trkpt>
      <trkpt lat="46.69795" lon="5.59806">
        <ele>389</ele>
        <time>2022-04-04T10:28:55Z</time>
      </trkpt>
      <trkpt lat="46.6985" lon="5.59872">
        <ele>389</ele>
        <time>2022-04-04T10:29:07Z</time>
      </trkpt>
      <trkpt lat="46.69875" lon="5.59894">
        <ele>388</ele>
        <time>2022-04-04T10:29:13Z</time>
      </trkpt>
      <trkpt lat="46.69929" lon="5.59934">
        <ele>386</ele>
        <time>2022-04-04T10:29:23Z</time>
      </trkpt>
      <trkpt lat="46.70005" lon="5.5997">
        <ele>378</ele>
        <time>2022-04-04T10:29:38Z</time>
      </trkpt>
      <trkpt lat="46.70018" lon="5.59972">
        <ele>376</ele>
        <time>2022-04-04T10:29:40Z</time>
      </trkpt>
      <trkpt lat="46.70027" lon="5.5997">
        <ele>375</ele>
        <time>2022-04-04T10:29:42Z</time>
      </trkpt>
      <trkpt lat="46.70038" lon="5.59963">
        <ele>375</ele>
        <time>2022-04-04T10:29:44Z</time>
      </trkpt>
      <trkpt lat="46.70052" lon="5.59947">
        <ele>375</ele>
        <time>2022-04-04T10:29:47Z</time>
      </trkpt>
      <trkpt lat="46.70062" lon="5.59928">
        <ele>376</ele>
        <time>2022-04-04T10:29:50Z</time>
      </trkpt>
      <trkpt lat="46.70119" lon="5.59808">
        <ele>371</ele>
        <time>2022-04-04T10:30:08Z</time>
      </trkpt>
      <trkpt lat="46.70178" lon="5.59728">
        <ele>364</ele>
        <time>2022-04-04T10:30:22Z</time>
      </trkpt>
      <trkpt lat="46.70198" lon="5.59691">
        <ele>364</ele>
        <time>2022-04-04T10:30:28Z</time>
      </trkpt>
      <trkpt lat="46.70269" lon="5.59505">
        <ele>355</ele>
        <time>2022-04-04T10:30:54Z</time>
      </trkpt>
      <trkpt lat="46.70302" lon="5.59455">
        <ele>354</ele>
        <time>2022-04-04T10:31:02Z</time>
      </trkpt>
      <trkpt lat="46.70354" lon="5.59391">
        <ele>352</ele>
        <time>2022-04-04T10:31:14Z</time>
      </trkpt>
      <trkpt lat="46.70419" lon="5.59337">
        <ele>348</ele>
        <time>2022-04-04T10:31:28Z</time>
      </trkpt>
      <trkpt lat="46.70474" lon="5.59303">
        <ele>344</ele>
        <time>2022-04-04T10:31:38Z</time>
      </trkpt>
      <trkpt lat="46.7082" lon="5.59302">
        <ele>328</ele>
        <time>2022-04-04T10:32:40Z</time>
      </trkpt>
      <trkpt lat="46.70908" lon="5.59304">
        <ele>324</ele>
        <time>2022-04-04T10:32:55Z</time>
      </trkpt>
      <trkpt lat="46.70941" lon="5.59306">
        <ele>322</ele>
        <time>2022-04-04T10:33:01Z</time>
      </trkpt>
      <trkpt lat="46.71001" lon="5.59315">
        <ele>318</ele>
        <time>2022-04-04T10:33:12Z</time>
      </trkpt>
      <trkpt lat="46.71028" lon="5.5931">
        <ele>316</ele>
        <time>2022-04-04T10:33:17Z</time>
      </trkpt>
      <trkpt lat="46.71116" lon="5.59267">
        <ele>310</ele>
        <time>2022-04-04T10:33:33Z</time>
      </trkpt>
      <trkpt lat="46.71144" lon="5.59257">
        <ele>310</ele>
        <time>2022-04-04T10:33:39Z</time>
      </trkpt>
      <trkpt lat="46.7117" lon="5.59255">
        <ele>309</ele>
        <time>2022-04-04T10:33:43Z</time>
      </trkpt>
      <trkpt lat="46.71188" lon="5.59256">
        <ele>310</ele>
        <time>2022-04-04T10:33:46Z</time>
      </trkpt>
      <trkpt lat="46.71211" lon="5.59264">
        <ele>311</ele>
        <time>2022-04-04T10:33:51Z</time>
      </trkpt>
      <trkpt lat="46.71236" lon="5.59277">
        <ele>312</ele>
        <time>2022-04-04T10:33:55Z</time>
      </trkpt>
      <trkpt lat="46.71257" lon="5.59284">
        <ele>312</ele>
        <time>2022-04-04T10:33:59Z</time>
      </trkpt>
      <trkpt lat="46.71274" lon="5.59288">
        <ele>311</ele>
        <time>2022-04-04T10:34:02Z</time>
      </trkpt>
      <trkpt lat="46.71294" lon="5.59288">
        <ele>311</ele>
        <time>2022-04-04T10:34:06Z</time>
      </trkpt>
      <trkpt lat="46.71327" lon="5.59304">
        <ele>309</ele>
        <time>2022-04-04T10:34:12Z</time>
      </trkpt>
      <trkpt lat="46.71338" lon="5.59317">
        <ele>309</ele>
        <time>2022-04-04T10:34:14Z</time>
      </trkpt>
      <trkpt lat="46.71369" lon="5.59365">
        <ele>309</ele>
        <time>2022-04-04T10:34:23Z</time>
      </trkpt>
      <trkpt lat="46.7138" lon="5.59377">
        <ele>309</ele>
        <time>2022-04-04T10:34:25Z</time>
      </trkpt>
      <trkpt lat="46.71393" lon="5.59385">
        <ele>309</ele>
        <time>2022-04-04T10:34:27Z</time>
      </trkpt>
      <trkpt lat="46.71454" lon="5.59396">
        <ele>309</ele>
        <time>2022-04-04T10:34:38Z</time>
      </trkpt>
      <trkpt lat="46.71486" lon="5.59407">
        <ele>309</ele>
        <time>2022-04-04T10:34:44Z</time>
      </trkpt>
      <trkpt lat="46.71501" lon="5.59416">
        <ele>309</ele>
        <time>2022-04-04T10:34:47Z</time>
      </trkpt>
      <trkpt lat="46.71532" lon="5.59438">
        <ele>308</ele>
        <time>2022-04-04T10:34:53Z</time>
      </trkpt>
      <trkpt lat="46.7154" lon="5.59451">
        <ele>309</ele>
        <time>2022-04-04T10:34:55Z</time>
      </trkpt>
      <trkpt lat="46.71545" lon="5.59466">
        <ele>310</ele>
        <time>2022-04-04T10:34:57Z</time>
      </trkpt>
      <trkpt lat="46.71547" lon="5.59497">
        <ele>311</ele>
        <time>2022-04-04T10:35:01Z</time>
      </trkpt>
      <trkpt lat="46.71548" lon="5.59505">
        <ele>312</ele>
        <time>2022-04-04T10:35:02Z</time>
      </trkpt>
      <trkpt lat="46.71552" lon="5.59514">
        <ele>313</ele>
        <time>2022-04-04T10:35:04Z</time>
      </trkpt>
      <trkpt lat="46.71571" lon="5.59521">
        <ele>314</ele>
        <time>2022-04-04T10:35:07Z</time>
      </trkpt>
      <trkpt lat="46.7159" lon="5.59531">
        <ele>315</ele>
        <time>2022-04-04T10:35:11Z</time>
      </trkpt>
      <trkpt lat="46.71626" lon="5.59555">
        <ele>315</ele>
        <time>2022-04-04T10:35:18Z</time>
      </trkpt>
      <trkpt lat="46.71664" lon="5.59573">
        <ele>314</ele>
        <time>2022-04-04T10:35:25Z</time>
      </trkpt>
      <trkpt lat="46.71677" lon="5.59584">
        <ele>315</ele>
        <time>2022-04-04T10:35:27Z</time>
      </trkpt>
      <trkpt lat="46.71725" lon="5.5962">
        <ele>314</ele>
        <time>2022-04-04T10:35:37Z</time>
      </trkpt>
      <trkpt lat="46.71723" lon="5.59638">
        <ele>316</ele>
        <time>2022-04-04T10:35:39Z</time>
      </trkpt>
      <trkpt lat="46.71692" lon="5.59721">
        <ele>321</ele>
        <time>2022-04-04T10:35:51Z</time>
      </trkpt>
      <trkpt lat="46.71684" lon="5.59746">
        <ele>322</ele>
        <time>2022-04-04T10:35:54Z</time>
      </trkpt>
      <trkpt lat="46.71683" lon="5.59763">
        <ele>323</ele>
        <time>2022-04-04T10:35:56Z</time>
      </trkpt>
      <trkpt lat="46.71684" lon="5.59769">
        <ele>323</ele>
        <time>2022-04-04T10:35:57Z</time>
      </trkpt>
      <trkpt lat="46.71691" lon="5.59779">
        <ele>324</ele>
        <time>2022-04-04T10:35:59Z</time>
      </trkpt>
      <trkpt lat="46.71723" lon="5.59796">
        <ele>323</ele>
        <time>2022-04-04T10:36:05Z</time>
      </trkpt>
      <trkpt lat="46.71778" lon="5.59832">
        <ele>322</ele>
        <time>2022-04-04T10:36:16Z</time>
      </trkpt>
      <trkpt lat="46.71842" lon="5.59882">
        <ele>322</ele>
        <time>2022-04-04T10:36:28Z</time>
      </trkpt>
      <trkpt lat="46.71855" lon="5.5989">
        <ele>322</ele>
        <time>2022-04-04T10:36:31Z</time>
      </trkpt>
      <trkpt lat="46.71937" lon="5.59923">
        <ele>323</ele>
        <time>2022-04-04T10:36:46Z</time>
      </trkpt>
      <trkpt lat="46.71954" lon="5.59934">
        <ele>322</ele>
        <time>2022-04-04T10:36:49Z</time>
      </trkpt>
      <trkpt lat="46.71965" lon="5.59946">
        <ele>322</ele>
        <time>2022-04-04T10:36:52Z</time>
      </trkpt>
      <trkpt lat="46.71976" lon="5.59963">
        <ele>323</ele>
        <time>2022-04-04T10:36:55Z</time>
      </trkpt>
      <trkpt lat="46.72016" lon="5.60028">
        <ele>326</ele>
        <time>2022-04-04T10:37:05Z</time>
      </trkpt>
      <trkpt lat="46.72034" lon="5.60078">
        <ele>330</ele>
        <time>2022-04-04T10:37:12Z</time>
      </trkpt>
      <trkpt lat="46.72066" lon="5.60137">
        <ele>332</ele>
        <time>2022-04-04T10:37:21Z</time>
      </trkpt>
      <trkpt lat="46.72082" lon="5.60156">
        <ele>332</ele>
        <time>2022-04-04T10:37:25Z</time>
      </trkpt>
      <trkpt lat="46.72101" lon="5.60171">
        <ele>335</ele>
        <time>2022-04-04T10:37:29Z</time>
      </trkpt>
      <trkpt lat="46.72117" lon="5.60179">
        <ele>336</ele>
        <time>2022-04-04T10:37:32Z</time>
      </trkpt>
      <trkpt lat="46.72133" lon="5.60183">
        <ele>336</ele>
        <time>2022-04-04T10:37:35Z</time>
      </trkpt>
      <trkpt lat="46.72215" lon="5.60185">
        <ele>336</ele>
        <time>2022-04-04T10:37:49Z</time>
      </trkpt>
      <trkpt lat="46.72245" lon="5.60194">
        <ele>338</ele>
        <time>2022-04-04T10:37:55Z</time>
      </trkpt>
      <trkpt lat="46.72252" lon="5.60199">
        <ele>338</ele>
        <time>2022-04-04T10:37:56Z</time>
      </trkpt>
      <trkpt lat="46.72268" lon="5.60218">
        <ele>339</ele>
        <time>2022-04-04T10:38:00Z</time>
      </trkpt>
      <trkpt lat="46.72252" lon="5.60199">
        <ele>338</ele>
        <time>2022-04-04T10:38:04Z</time>
      </trkpt>
      <trkpt lat="46.72245" lon="5.60194">
        <ele>338</ele>
        <time>2022-04-04T10:38:05Z</time>
      </trkpt>
      <trkpt lat="46.72235" lon="5.6019">
        <ele>337</ele>
        <time>2022-04-04T10:38:07Z</time>
      </trkpt>
      <trkpt lat="46.72255" lon="5.60215">
        <ele>340</ele>
        <time>2022-04-04T10:38:12Z</time>
      </trkpt>
      <trkpt lat="46.72264" lon="5.60228">
        <ele>340</ele>
        <time>2022-04-04T10:38:14Z</time>
      </trkpt>
      <trkpt lat="46.72268" lon="5.6024">
        <ele>341</ele>
        <time>2022-04-04T10:38:15Z</time>
      </trkpt>
      <trkpt lat="46.72268" lon="5.60251">
        <ele>343</ele>
        <time>2022-04-04T10:38:17Z</time>
      </trkpt>
      <trkpt lat="46.72265" lon="5.60263">
        <ele>345</ele>
        <time>2022-04-04T10:38:18Z</time>
      </trkpt>
      <trkpt lat="46.72261" lon="5.6027">
        <ele>346</ele>
        <time>2022-04-04T10:38:19Z</time>
      </trkpt>
      <trkpt lat="46.72249" lon="5.60275">
        <ele>348</ele>
        <time>2022-04-04T10:38:22Z</time>
      </trkpt>
      <trkpt lat="46.72184" lon="5.60285">
        <ele>351</ele>
        <time>2022-04-04T10:38:33Z</time>
      </trkpt>
      <trkpt lat="46.72153" lon="5.60295">
        <ele>353</ele>
        <time>2022-04-04T10:38:39Z</time>
      </trkpt>
      <trkpt lat="46.72079" lon="5.60326">
        <ele>360</ele>
        <time>2022-04-04T10:38:53Z</time>
      </trkpt>
      <trkpt lat="46.72069" lon="5.60324">
        <ele>361</ele>
        <time>2022-04-04T10:38:54Z</time>
      </trkpt>
      <trkpt lat="46.72041" lon="5.6031">
        <ele>364</ele>
        <time>2022-04-04T10:39:00Z</time>
      </trkpt>
      <trkpt lat="46.71952" lon="5.60231">
        <ele>366</ele>
        <time>2022-04-04T10:39:18Z</time>
      </trkpt>
      <trkpt lat="46.71924" lon="5.60213">
        <ele>368</ele>
        <time>2022-04-04T10:39:24Z</time>
      </trkpt>
      <trkpt lat="46.71899" lon="5.60203">
        <ele>369</ele>
        <time>2022-04-04T10:39:28Z</time>
      </trkpt>
      <trkpt lat="46.71878" lon="5.60198">
        <ele>370</ele>
        <time>2022-04-04T10:39:32Z</time>
      </trkpt>
      <trkpt lat="46.71857" lon="5.60197">
        <ele>371</ele>
        <time>2022-04-04T10:39:36Z</time>
      </trkpt>
      <trkpt lat="46.7183" lon="5.60201">
        <ele>374</ele>
        <time>2022-04-04T10:39:41Z</time>
      </trkpt>
      <trkpt lat="46.71773" lon="5.60214">
        <ele>380</ele>
        <time>2022-04-04T10:39:51Z</time>
      </trkpt>
      <trkpt lat="46.71735" lon="5.60226">
        <ele>385</ele>
        <time>2022-04-04T10:39:58Z</time>
      </trkpt>
      <trkpt lat="46.71706" lon="5.60231">
        <ele>388</ele>
        <time>2022-04-04T10:40:03Z</time>
      </trkpt>
      <trkpt lat="46.71649" lon="5.60224">
        <ele>391</ele>
        <time>2022-04-04T10:40:13Z</time>
      </trkpt>
      <trkpt lat="46.71612" lon="5.60224">
        <ele>396</ele>
        <time>2022-04-04T10:40:20Z</time>
      </trkpt>
      <trkpt lat="46.7159" lon="5.6022">
        <ele>398</ele>
        <time>2022-04-04T10:40:24Z</time>
      </trkpt>
      <trkpt lat="46.71573" lon="5.60212">
        <ele>399</ele>
        <time>2022-04-04T10:40:27Z</time>
      </trkpt>
      <trkpt lat="46.71524" lon="5.60176">
        <ele>399</ele>
        <time>2022-04-04T10:40:37Z</time>
      </trkpt>
      <trkpt lat="46.71516" lon="5.60167">
        <ele>397</ele>
        <time>2022-04-04T10:40:38Z</time>
      </trkpt>
      <trkpt lat="46.7151" lon="5.60167">
        <ele>399</ele>
        <time>2022-04-04T10:40:40Z</time>
      </trkpt>
      <trkpt lat="46.71501" lon="5.60164">
        <ele>400</ele>
        <time>2022-04-04T10:40:41Z</time>
      </trkpt>
      <trkpt lat="46.71445" lon="5.60122">
        <ele>404</ele>
        <time>2022-04-04T10:40:52Z</time>
      </trkpt>
      <trkpt lat="46.71421" lon="5.6011">
        <ele>405</ele>
        <time>2022-04-04T10:40:57Z</time>
      </trkpt>
      <trkpt lat="46.71407" lon="5.60098">
        <ele>403</ele>
        <time>2022-04-04T10:41:00Z</time>
      </trkpt>
      <trkpt lat="46.71392" lon="5.60077">
        <ele>399</ele>
        <time>2022-04-04T10:41:03Z</time>
      </trkpt>
      <trkpt lat="46.71379" lon="5.60066">
        <ele>399</ele>
        <time>2022-04-04T10:41:06Z</time>
      </trkpt>
      <trkpt lat="46.7137" lon="5.60069">
        <ele>401</ele>
        <time>2022-04-04T10:41:08Z</time>
      </trkpt>
      <trkpt lat="46.71367" lon="5.60076">
        <ele>403</ele>
        <time>2022-04-04T10:41:09Z</time>
      </trkpt>
      <trkpt lat="46.71367" lon="5.60089">
        <ele>407</ele>
        <time>2022-04-04T10:41:10Z</time>
      </trkpt>
      <trkpt lat="46.71372" lon="5.60098">
        <ele>410</ele>
        <time>2022-04-04T10:41:12Z</time>
      </trkpt>
      <trkpt lat="46.71405" lon="5.60118">
        <ele>411</ele>
        <time>2022-04-04T10:41:18Z</time>
      </trkpt>
      <trkpt lat="46.71427" lon="5.60137">
        <ele>412</ele>
        <time>2022-04-04T10:41:23Z</time>
      </trkpt>
      <trkpt lat="46.71465" lon="5.60178">
        <ele>415</ele>
        <time>2022-04-04T10:41:31Z</time>
      </trkpt>
      <trkpt lat="46.71488" lon="5.60196">
        <ele>414</ele>
        <time>2022-04-04T10:41:36Z</time>
      </trkpt>
      <trkpt lat="46.71508" lon="5.60216">
        <ele>416</ele>
        <time>2022-04-04T10:41:40Z</time>
      </trkpt>
      <trkpt lat="46.71537" lon="5.60251">
        <ele>420</ele>
        <time>2022-04-04T10:41:47Z</time>
      </trkpt>
      <trkpt lat="46.71582" lon="5.60295">
        <ele>426</ele>
        <time>2022-04-04T10:41:56Z</time>
      </trkpt>
      <trkpt lat="46.71604" lon="5.60311">
        <ele>428</ele>
        <time>2022-04-04T10:42:01Z</time>
      </trkpt>
      <trkpt lat="46.71699" lon="5.60357">
        <ele>429</ele>
        <time>2022-04-04T10:42:19Z</time>
      </trkpt>
      <trkpt lat="46.71783" lon="5.60406">
        <ele>432</ele>
        <time>2022-04-04T10:42:35Z</time>
      </trkpt>
      <trkpt lat="46.71797" lon="5.60417">
        <ele>432</ele>
        <time>2022-04-04T10:42:38Z</time>
      </trkpt>
      <trkpt lat="46.71823" lon="5.60444">
        <ele>436</ele>
        <time>2022-04-04T10:42:43Z</time>
      </trkpt>
      <trkpt lat="46.71945" lon="5.60537">
        <ele>442</ele>
        <time>2022-04-04T10:43:08Z</time>
      </trkpt>
      <trkpt lat="46.71966" lon="5.60558">
        <ele>444</ele>
        <time>2022-04-04T10:43:12Z</time>
      </trkpt>
      <trkpt lat="46.72004" lon="5.60601">
        <ele>448</ele>
        <time>2022-04-04T10:43:21Z</time>
      </trkpt>
      <trkpt lat="46.72041" lon="5.60651">
        <ele>452</ele>
        <time>2022-04-04T10:43:30Z</time>
      </trkpt>
      <trkpt lat="46.72056" lon="5.60666">
        <ele>453</ele>
        <time>2022-04-04T10:43:33Z</time>
      </trkpt>
      <trkpt lat="46.72067" lon="5.60679">
        <ele>453</ele>
        <time>2022-04-04T10:43:36Z</time>
      </trkpt>
      <trkpt lat="46.72076" lon="5.60697">
        <ele>454</ele>
        <time>2022-04-04T10:43:38Z</time>
      </trkpt>
      <trkpt lat="46.72083" lon="5.60719">
        <ele>458</ele>
        <time>2022-04-04T10:43:41Z</time>
      </trkpt>
      <trkpt lat="46.72089" lon="5.60727">
        <ele>459</ele>
        <time>2022-04-04T10:43:43Z</time>
      </trkpt>
      <trkpt lat="46.721" lon="5.60734">
        <ele>459</ele>
        <time>2022-04-04T10:43:45Z</time>
      </trkpt>
      <trkpt lat="46.72115" lon="5.60738">
        <ele>459</ele>
        <time>2022-04-04T10:43:47Z</time>
      </trkpt>
      <trkpt lat="46.7213" lon="5.60739">
        <ele>458</ele>
        <time>2022-04-04T10:43:50Z</time>
      </trkpt>
      <trkpt lat="46.72147" lon="5.60744">
        <ele>458</ele>
        <time>2022-04-04T10:43:53Z</time>
      </trkpt>
      <trkpt lat="46.72154" lon="5.60749">
        <ele>459</ele>
        <time>2022-04-04T10:43:55Z</time>
      </trkpt>
      <trkpt lat="46.72159" lon="5.60757">
        <ele>459</ele>
        <time>2022-04-04T10:43:56Z</time>
      </trkpt>
      <trkpt lat="46.7216" lon="5.60773">
        <ele>461</ele>
        <time>2022-04-04T10:43:58Z</time>
      </trkpt>
      <trkpt lat="46.72158" lon="5.6078">
        <ele>462</ele>
        <time>2022-04-04T10:43:59Z</time>
      </trkpt>
      <trkpt lat="46.72153" lon="5.60787">
        <ele>464</ele>
        <time>2022-04-04T10:44:00Z</time>
      </trkpt>
      <trkpt lat="46.72146" lon="5.6079">
        <ele>464</ele>
        <time>2022-04-04T10:44:01Z</time>
      </trkpt>
      <trkpt lat="46.72107" lon="5.6079">
        <ele>466</ele>
        <time>2022-04-04T10:44:08Z</time>
      </trkpt>
      <trkpt lat="46.7209" lon="5.60793">
        <ele>467</ele>
        <time>2022-04-04T10:44:11Z</time>
      </trkpt>
      <trkpt lat="46.72081" lon="5.60797">
        <ele>467</ele>
        <time>2022-04-04T10:44:13Z</time>
      </trkpt>
      <trkpt lat="46.72072" lon="5.60804">
        <ele>468</ele>
        <time>2022-04-04T10:44:15Z</time>
      </trkpt>
      <trkpt lat="46.72067" lon="5.60816">
        <ele>469</ele>
        <time>2022-04-04T10:44:17Z</time>
      </trkpt>
      <trkpt lat="46.72065" lon="5.60829">
        <ele>470</ele>
        <time>2022-04-04T10:44:18Z</time>
      </trkpt>
      <trkpt lat="46.72065" lon="5.60852">
        <ele>470</ele>
        <time>2022-04-04T10:44:21Z</time>
      </trkpt>
      <trkpt lat="46.7207" lon="5.60887">
        <ele>471</ele>
        <time>2022-04-04T10:44:25Z</time>
      </trkpt>
      <trkpt lat="46.72054" lon="5.60914">
        <ele>471</ele>
        <time>2022-04-04T10:44:30Z</time>
      </trkpt>
      <trkpt lat="46.72042" lon="5.60929">
        <ele>470</ele>
        <time>2022-04-04T10:44:33Z</time>
      </trkpt>
      <trkpt lat="46.72022" lon="5.60942">
        <ele>470</ele>
        <time>2022-04-04T10:44:36Z</time>
      </trkpt>
      <trkpt lat="46.72001" lon="5.6095">
        <ele>470</ele>
        <time>2022-04-04T10:44:40Z</time>
      </trkpt>
      <trkpt lat="46.71973" lon="5.60957">
        <ele>470</ele>
        <time>2022-04-04T10:44:45Z</time>
      </trkpt>
      <trkpt lat="46.71962" lon="5.60963">
        <ele>470</ele>
        <time>2022-04-04T10:44:47Z</time>
      </trkpt>
      <trkpt lat="46.71951" lon="5.60979">
        <ele>470</ele>
        <time>2022-04-04T10:44:50Z</time>
      </trkpt>
      <trkpt lat="46.71946" lon="5.60994">
        <ele>470</ele>
        <time>2022-04-04T10:44:52Z</time>
      </trkpt>
      <trkpt lat="46.71939" lon="5.61035">
        <ele>470</ele>
        <time>2022-04-04T10:44:57Z</time>
      </trkpt>
      <trkpt lat="46.71936" lon="5.61054">
        <ele>469</ele>
        <time>2022-04-04T10:45:00Z</time>
      </trkpt>
      <trkpt lat="46.71937" lon="5.61084">
        <ele>469</ele>
        <time>2022-04-04T10:45:03Z</time>
      </trkpt>
      <trkpt lat="46.71934" lon="5.61096">
        <ele>468</ele>
        <time>2022-04-04T10:45:05Z</time>
      </trkpt>
      <trkpt lat="46.7193" lon="5.61106">
        <ele>466</ele>
        <time>2022-04-04T10:45:06Z</time>
      </trkpt>
      <trkpt lat="46.71907" lon="5.61125">
        <ele>465</ele>
        <time>2022-04-04T10:45:11Z</time>
      </trkpt>
      <trkpt lat="46.71879" lon="5.61161">
        <ele>468</ele>
        <time>2022-04-04T10:45:18Z</time>
      </trkpt>
      <trkpt lat="46.7185" lon="5.61203">
        <ele>469</ele>
        <time>2022-04-04T10:45:25Z</time>
      </trkpt>
      <trkpt lat="46.71836" lon="5.61227">
        <ele>467</ele>
        <time>2022-04-04T10:45:29Z</time>
      </trkpt>
      <trkpt lat="46.71831" lon="5.61247">
        <ele>464</ele>
        <time>2022-04-04T10:45:31Z</time>
      </trkpt>
      <trkpt lat="46.718" lon="5.61399">
        <ele>455</ele>
        <time>2022-04-04T10:45:51Z</time>
      </trkpt>
      <trkpt lat="46.7178" lon="5.61465">
        <ele>454</ele>
        <time>2022-04-04T10:46:00Z</time>
      </trkpt>
      <trkpt lat="46.71749" lon="5.61526">
        <ele>455</ele>
        <time>2022-04-04T10:46:09Z</time>
      </trkpt>
      <trkpt lat="46.71744" lon="5.61539">
        <ele>455</ele>
        <time>2022-04-04T10:46:11Z</time>
      </trkpt>
      <trkpt lat="46.7173" lon="5.61616">
        <ele>460</ele>
        <time>2022-04-04T10:46:20Z</time>
      </trkpt>
      <trkpt lat="46.71721" lon="5.61656">
        <ele>462</ele>
        <time>2022-04-04T10:46:26Z</time>
      </trkpt>
      <trkpt lat="46.71683" lon="5.61749">
        <ele>466</ele>
        <time>2022-04-04T10:46:39Z</time>
      </trkpt>
      <trkpt lat="46.71673" lon="5.61779">
        <ele>467</ele>
        <time>2022-04-04T10:46:43Z</time>
      </trkpt>
      <trkpt lat="46.71668" lon="5.618">
        <ele>467</ele>
        <time>2022-04-04T10:46:46Z</time>
      </trkpt>
      <trkpt lat="46.71647" lon="5.61911">
        <ele>472</ele>
        <time>2022-04-04T10:47:00Z</time>
      </trkpt>
      <trkpt lat="46.71632" lon="5.6195">
        <ele>474</ele>
        <time>2022-04-04T10:47:05Z</time>
      </trkpt>
      <trkpt lat="46.71619" lon="5.61975">
        <ele>476</ele>
        <time>2022-04-04T10:47:09Z</time>
      </trkpt>
      <trkpt lat="46.71584" lon="5.62034">
        <ele>481</ele>
        <time>2022-04-04T10:47:18Z</time>
      </trkpt>
      <trkpt lat="46.71544" lon="5.62097">
        <ele>485</ele>
        <time>2022-04-04T10:47:29Z</time>
      </trkpt>
      <trkpt lat="46.71534" lon="5.62106">
        <ele>485</ele>
        <time>2022-04-04T10:47:31Z</time>
      </trkpt>
      <trkpt lat="46.71513" lon="5.62112">
        <ele>483</ele>
        <time>2022-04-04T10:47:35Z</time>
      </trkpt>
      <trkpt lat="46.71502" lon="5.62112">
        <ele>483</ele>
        <time>2022-04-04T10:47:37Z</time>
      </trkpt>
      <trkpt lat="46.7146" lon="5.62095">
        <ele>485</ele>
        <time>2022-04-04T10:47:44Z</time>
      </trkpt>
      <trkpt lat="46.71442" lon="5.62091">
        <ele>485</ele>
        <time>2022-04-04T10:47:48Z</time>
      </trkpt>
      <trkpt lat="46.71418" lon="5.6209">
        <ele>486</ele>
        <time>2022-04-04T10:47:52Z</time>
      </trkpt>
      <trkpt lat="46.71387" lon="5.62095">
        <ele>486</ele>
        <time>2022-04-04T10:47:58Z</time>
      </trkpt>
      <trkpt lat="46.71363" lon="5.62096">
        <ele>488</ele>
        <time>2022-04-04T10:48:02Z</time>
      </trkpt>
      <trkpt lat="46.71341" lon="5.62094">
        <ele>489</ele>
        <time>2022-04-04T10:48:06Z</time>
      </trkpt>
      <trkpt lat="46.7117" lon="5.6207">
        <ele>499</ele>
        <time>2022-04-04T10:48:36Z</time>
      </trkpt>
      <trkpt lat="46.71106" lon="5.62064">
        <ele>506</ele>
        <time>2022-04-04T10:48:48Z</time>
      </trkpt>
      <trkpt lat="46.71069" lon="5.62064">
        <ele>508</ele>
        <time>2022-04-04T10:48:54Z</time>
      </trkpt>
      <trkpt lat="46.71039" lon="5.62067">
        <ele>507</ele>
        <time>2022-04-04T10:49:00Z</time>
      </trkpt>
      <trkpt lat="46.70986" lon="5.62082">
        <ele>507</ele>
        <time>2022-04-04T10:49:09Z</time>
      </trkpt>
      <trkpt lat="46.7094" lon="5.62091">
        <ele>504</ele>
        <time>2022-04-04T10:49:17Z</time>
      </trkpt>
      <trkpt lat="46.70917" lon="5.62092">
        <ele>502</ele>
        <time>2022-04-04T10:49:22Z</time>
      </trkpt>
      <trkpt lat="46.70832" lon="5.62084">
        <ele>502</ele>
        <time>2022-04-04T10:49:37Z</time>
      </trkpt>
      <trkpt lat="46.70814" lon="5.62079">
        <ele>505</ele>
        <time>2022-04-04T10:49:40Z</time>
      </trkpt>
      <trkpt lat="46.70799" lon="5.62072">
        <ele>506</ele>
        <time>2022-04-04T10:49:43Z</time>
      </trkpt>
      <trkpt lat="46.70784" lon="5.62096">
        <ele>508</ele>
        <time>2022-04-04T10:49:47Z</time>
      </trkpt>
      <trkpt lat="46.70761" lon="5.6212">
        <ele>507</ele>
        <time>2022-04-04T10:49:52Z</time>
      </trkpt>
      <trkpt lat="46.70732" lon="5.62144">
        <ele>506</ele>
        <time>2022-04-04T10:49:58Z</time>
      </trkpt>
      <trkpt lat="46.70696" lon="5.62185">
        <ele>501</ele>
        <time>2022-04-04T10:50:06Z</time>
      </trkpt>
      <trkpt lat="46.70689" lon="5.62191">
        <ele>500</ele>
        <time>2022-04-04T10:50:07Z</time>
      </trkpt>
      <trkpt lat="46.70678" lon="5.62196">
        <ele>499</ele>
        <time>2022-04-04T10:50:09Z</time>
      </trkpt>
      <trkpt lat="46.70664" lon="5.62199">
        <ele>500</ele>
        <time>2022-04-04T10:50:12Z</time>
      </trkpt>
      <trkpt lat="46.70597" lon="5.622">
        <ele>498</ele>
        <time>2022-04-04T10:50:24Z</time>
      </trkpt>
      <trkpt lat="46.70558" lon="5.62206">
        <ele>495</ele>
        <time>2022-04-04T10:50:31Z</time>
      </trkpt>
      <trkpt lat="46.70485" lon="5.62223">
        <ele>487</ele>
        <time>2022-04-04T10:50:44Z</time>
      </trkpt>
      <trkpt lat="46.70462" lon="5.62236">
        <ele>484</ele>
        <time>2022-04-04T10:50:48Z</time>
      </trkpt>
      <trkpt lat="46.70419" lon="5.62268">
        <ele>476</ele>
        <time>2022-04-04T10:50:57Z</time>
      </trkpt>
      <trkpt lat="46.70403" lon="5.62275">
        <ele>474</ele>
        <time>2022-04-04T10:51:00Z</time>
      </trkpt>
      <trkpt lat="46.70336" lon="5.62291">
        <ele>470</ele>
        <time>2022-04-04T10:51:12Z</time>
      </trkpt>
      <trkpt lat="46.7027" lon="5.62314">
        <ele>468</ele>
        <time>2022-04-04T10:51:24Z</time>
      </trkpt>
      <trkpt lat="46.70254" lon="5.62321">
        <ele>467</ele>
        <time>2022-04-04T10:51:27Z</time>
      </trkpt>
      <trkpt lat="46.70183" lon="5.62362">
        <ele>458</ele>
        <time>2022-04-04T10:51:41Z</time>
      </trkpt>
      <trkpt lat="46.70101" lon="5.6239">
        <ele>456</ele>
        <time>2022-04-04T10:51:56Z</time>
      </trkpt>
      <trkpt lat="46.70019" lon="5.62434">
        <ele>449</ele>
        <time>2022-04-04T10:52:11Z</time>
      </trkpt>
      <trkpt lat="46.69964" lon="5.62449">
        <ele>448</ele>
        <time>2022-04-04T10:52:21Z</time>
      </trkpt>
      <trkpt lat="46.69953" lon="5.62455">
        <ele>447</ele>
        <time>2022-04-04T10:52:23Z</time>
      </trkpt>
      <trkpt lat="46.69933" lon="5.62471">
        <ele>444</ele>
        <time>2022-04-04T10:52:27Z</time>
      </trkpt>
      <trkpt lat="46.69908" lon="5.62487">
        <ele>442</ele>
        <time>2022-04-04T10:52:32Z</time>
      </trkpt>
      <trkpt lat="46.69883" lon="5.62502">
        <ele>441</ele>
        <time>2022-04-04T10:52:37Z</time>
      </trkpt>
      <trkpt lat="46.69864" lon="5.6252">
        <ele>440</ele>
        <time>2022-04-04T10:52:41Z</time>
      </trkpt>
      <trkpt lat="46.69828" lon="5.62571">
        <ele>433</ele>
        <time>2022-04-04T10:52:50Z</time>
      </trkpt>
      <trkpt lat="46.69804" lon="5.62597">
        <ele>433</ele>
        <time>2022-04-04T10:52:55Z</time>
      </trkpt>
      <trkpt lat="46.69796" lon="5.62611">
        <ele>432</ele>
        <time>2022-04-04T10:52:57Z</time>
      </trkpt>
      <trkpt lat="46.69773" lon="5.62661">
        <ele>429</ele>
        <time>2022-04-04T10:53:05Z</time>
      </trkpt>
      <trkpt lat="46.69765" lon="5.62691">
        <ele>426</ele>
        <time>2022-04-04T10:53:09Z</time>
      </trkpt>
      <trkpt lat="46.6976" lon="5.6273">
        <ele>422</ele>
        <time>2022-04-04T10:53:13Z</time>
      </trkpt>
      <trkpt lat="46.69757" lon="5.62741">
        <ele>421</ele>
        <time>2022-04-04T10:53:15Z</time>
      </trkpt>
      <trkpt lat="46.69734" lon="5.62789">
        <ele>422</ele>
        <time>2022-04-04T10:53:22Z</time>
      </trkpt>
      <trkpt lat="46.69729" lon="5.62806">
        <ele>422</ele>
        <time>2022-04-04T10:53:24Z</time>
      </trkpt>
      <trkpt lat="46.69728" lon="5.62813">
        <ele>422</ele>
        <time>2022-04-04T10:53:25Z</time>
      </trkpt>
      <trkpt lat="46.69734" lon="5.62843">
        <ele>420</ele>
        <time>2022-04-04T10:53:29Z</time>
      </trkpt>
      <trkpt lat="46.69735" lon="5.62864">
        <ele>422</ele>
        <time>2022-04-04T10:53:32Z</time>
      </trkpt>
      <trkpt lat="46.69728" lon="5.6292">
        <ele>428</ele>
        <time>2022-04-04T10:53:39Z</time>
      </trkpt>
      <trkpt lat="46.6973" lon="5.62923">
        <ele>428</ele>
        <time>2022-04-04T10:53:39Z</time>
      </trkpt>
      <trkpt lat="46.69736" lon="5.62924">
        <ele>425</ele>
        <time>2022-04-04T10:53:40Z</time>
      </trkpt>
      <trkpt lat="46.69742" lon="5.62918">
        <ele>422</ele>
        <time>2022-04-04T10:53:41Z</time>
      </trkpt>
      <trkpt lat="46.69752" lon="5.62886">
        <ele>417</ele>
        <time>2022-04-04T10:53:46Z</time>
      </trkpt>
      <trkpt lat="46.69761" lon="5.62869">
        <ele>415</ele>
        <time>2022-04-04T10:53:48Z</time>
      </trkpt>
      <trkpt lat="46.69775" lon="5.62847">
        <ele>412</ele>
        <time>2022-04-04T10:53:52Z</time>
      </trkpt>
      <trkpt lat="46.69784" lon="5.62842">
        <ele>411</ele>
        <time>2022-04-04T10:53:54Z</time>
      </trkpt>
      <trkpt lat="46.69788" lon="5.62841">
        <ele>410</ele>
        <time>2022-04-04T10:53:54Z</time>
      </trkpt>
      <trkpt lat="46.69805" lon="5.62846">
        <ele>408</ele>
        <time>2022-04-04T10:53:58Z</time>
      </trkpt>
      <trkpt lat="46.69816" lon="5.62846">
        <ele>406</ele>
        <time>2022-04-04T10:53:59Z</time>
      </trkpt>
      <trkpt lat="46.69828" lon="5.6284">
        <ele>404</ele>
        <time>2022-04-04T10:54:02Z</time>
      </trkpt>
      <trkpt lat="46.69837" lon="5.62829">
        <ele>404</ele>
        <time>2022-04-04T10:54:04Z</time>
      </trkpt>
      <trkpt lat="46.69862" lon="5.62786">
        <ele>403</ele>
        <time>2022-04-04T10:54:11Z</time>
      </trkpt>
      <trkpt lat="46.69869" lon="5.62777">
        <ele>403</ele>
        <time>2022-04-04T10:54:12Z</time>
      </trkpt>
      <trkpt lat="46.69892" lon="5.62762">
        <ele>401</ele>
        <time>2022-04-04T10:54:17Z</time>
      </trkpt>
      <trkpt lat="46.69913" lon="5.62758">
        <ele>399</ele>
        <time>2022-04-04T10:54:21Z</time>
      </trkpt>
      <trkpt lat="46.69919" lon="5.62759">
        <ele>398</ele>
        <time>2022-04-04T10:54:22Z</time>
      </trkpt>
      <trkpt lat="46.69955" lon="5.6277">
        <ele>395</ele>
        <time>2022-04-04T10:54:28Z</time>
      </trkpt>
      <trkpt lat="46.69963" lon="5.62771">
        <ele>395</ele>
        <time>2022-04-04T10:54:30Z</time>
      </trkpt>
      <trkpt lat="46.6999" lon="5.62764">
        <ele>394</ele>
        <time>2022-04-04T10:54:35Z</time>
      </trkpt>
      <trkpt lat="46.70034" lon="5.6278">
        <ele>389</ele>
        <time>2022-04-04T10:54:43Z</time>
      </trkpt>
      <trkpt lat="46.70065" lon="5.62779">
        <ele>387</ele>
        <time>2022-04-04T10:54:48Z</time>
      </trkpt>
      <trkpt lat="46.70147" lon="5.62794">
        <ele>383</ele>
        <time>2022-04-04T10:55:03Z</time>
      </trkpt>
      <trkpt lat="46.70204" lon="5.62798">
        <ele>383</ele>
        <time>2022-04-04T10:55:13Z</time>
      </trkpt>
      <trkpt lat="46.70213" lon="5.62799">
        <ele>382</ele>
        <time>2022-04-04T10:55:15Z</time>
      </trkpt>
      <trkpt lat="46.70229" lon="5.62807">
        <ele>381</ele>
        <time>2022-04-04T10:55:18Z</time>
      </trkpt>
      <trkpt lat="46.70256" lon="5.62835">
        <ele>373</ele>
        <time>2022-04-04T10:55:23Z</time>
      </trkpt>
      <trkpt lat="46.70267" lon="5.62845">
        <ele>370</ele>
        <time>2022-04-04T10:55:26Z</time>
      </trkpt>
      <trkpt lat="46.70277" lon="5.62848">
        <ele>369</ele>
        <time>2022-04-04T10:55:28Z</time>
      </trkpt>
      <trkpt lat="46.70313" lon="5.6285">
        <ele>366</ele>
        <time>2022-04-04T10:55:34Z</time>
      </trkpt>
      <trkpt lat="46.70327" lon="5.62848">
        <ele>366</ele>
        <time>2022-04-04T10:55:37Z</time>
      </trkpt>
      <trkpt lat="46.7034" lon="5.62842">
        <ele>365</ele>
        <time>2022-04-04T10:55:39Z</time>
      </trkpt>
      <trkpt lat="46.70354" lon="5.62832">
        <ele>364</ele>
        <time>2022-04-04T10:55:42Z</time>
      </trkpt>
      <trkpt lat="46.70364" lon="5.62819">
        <ele>365</ele>
        <time>2022-04-04T10:55:44Z</time>
      </trkpt>
      <trkpt lat="46.70378" lon="5.62798">
        <ele>367</ele>
        <time>2022-04-04T10:55:48Z</time>
      </trkpt>
      <trkpt lat="46.70385" lon="5.62782">
        <ele>370</ele>
        <time>2022-04-04T10:55:50Z</time>
      </trkpt>
      <trkpt lat="46.70391" lon="5.62759">
        <ele>375</ele>
        <time>2022-04-04T10:55:53Z</time>
      </trkpt>
      <trkpt lat="46.70398" lon="5.62752">
        <ele>375</ele>
        <time>2022-04-04T10:55:55Z</time>
      </trkpt>
      <trkpt lat="46.70406" lon="5.6275">
        <ele>374</ele>
        <time>2022-04-04T10:55:56Z</time>
      </trkpt>
      <trkpt lat="46.70416" lon="5.62751">
        <ele>372</ele>
        <time>2022-04-04T10:55:58Z</time>
      </trkpt>
      <trkpt lat="46.70426" lon="5.62756">
        <ele>370</ele>
        <time>2022-04-04T10:56:00Z</time>
      </trkpt>
      <trkpt lat="46.70458" lon="5.62782">
        <ele>363</ele>
        <time>2022-04-04T10:56:06Z</time>
      </trkpt>
      <trkpt lat="46.70491" lon="5.62804">
        <ele>356</ele>
        <time>2022-04-04T10:56:13Z</time>
      </trkpt>
      <trkpt lat="46.7052" lon="5.6283">
        <ele>350</ele>
        <time>2022-04-04T10:56:19Z</time>
      </trkpt>
      <trkpt lat="46.70541" lon="5.62859">
        <ele>346</ele>
        <time>2022-04-04T10:56:24Z</time>
      </trkpt>
      <trkpt lat="46.7056" lon="5.62896">
        <ele>340</ele>
        <time>2022-04-04T10:56:29Z</time>
      </trkpt>
      <trkpt lat="46.7057" lon="5.62907">
        <ele>338</ele>
        <time>2022-04-04T10:56:32Z</time>
      </trkpt>
      <trkpt lat="46.70579" lon="5.62913">
        <ele>338</ele>
        <time>2022-04-04T10:56:33Z</time>
      </trkpt>
      <trkpt lat="46.70612" lon="5.62919">
        <ele>335</ele>
        <time>2022-04-04T10:56:39Z</time>
      </trkpt>
      <trkpt lat="46.70635" lon="5.62917">
        <ele>335</ele>
        <time>2022-04-04T10:56:43Z</time>
      </trkpt>
      <trkpt lat="46.7067" lon="5.62919">
        <ele>333</ele>
        <time>2022-04-04T10:56:50Z</time>
      </trkpt>
      <trkpt lat="46.70715" lon="5.62911">
        <ele>332</ele>
        <time>2022-04-04T10:56:58Z</time>
      </trkpt>
      <trkpt lat="46.70747" lon="5.62896">
        <ele>333</ele>
        <time>2022-04-04T10:57:04Z</time>
      </trkpt>
      <trkpt lat="46.70753" lon="5.62897">
        <ele>333</ele>
        <time>2022-04-04T10:57:05Z</time>
      </trkpt>
      <trkpt lat="46.70759" lon="5.629">
        <ele>332</ele>
        <time>2022-04-04T10:57:06Z</time>
      </trkpt>
      <trkpt lat="46.70771" lon="5.62918">
        <ele>329</ele>
        <time>2022-04-04T10:57:09Z</time>
      </trkpt>
      <trkpt lat="46.70776" lon="5.62924">
        <ele>328</ele>
        <time>2022-04-04T10:57:10Z</time>
      </trkpt>
      <trkpt lat="46.70784" lon="5.62928">
        <ele>328</ele>
        <time>2022-04-04T10:57:12Z</time>
      </trkpt>
      <trkpt lat="46.7083" lon="5.62938">
        <ele>328</ele>
        <time>2022-04-04T10:57:20Z</time>
      </trkpt>
      <trkpt lat="46.70853" lon="5.62948">
        <ele>328</ele>
        <time>2022-04-04T10:57:24Z</time>
      </trkpt>
      <trkpt lat="46.70858" lon="5.62953">
        <ele>328</ele>
        <time>2022-04-04T10:57:25Z</time>
      </trkpt>
      <trkpt lat="46.70864" lon="5.62962">
        <ele>327</ele>
        <time>2022-04-04T10:57:27Z</time>
      </trkpt>
      <trkpt lat="46.70884" lon="5.63001">
        <ele>322</ele>
        <time>2022-04-04T10:57:33Z</time>
      </trkpt>
      <trkpt lat="46.70904" lon="5.63032">
        <ele>318</ele>
        <time>2022-04-04T10:57:38Z</time>
      </trkpt>
      <trkpt lat="46.70919" lon="5.63047">
        <ele>316</ele>
        <time>2022-04-04T10:57:41Z</time>
      </trkpt>
      <trkpt lat="46.70934" lon="5.63056">
        <ele>316</ele>
        <time>2022-04-04T10:57:44Z</time>
      </trkpt>
      <trkpt lat="46.7095" lon="5.63063">
        <ele>315</ele>
        <time>2022-04-04T10:57:47Z</time>
      </trkpt>
      <trkpt lat="46.70961" lon="5.63066">
        <ele>316</ele>
        <time>2022-04-04T10:57:49Z</time>
      </trkpt>
      <trkpt lat="46.70986" lon="5.63067">
        <ele>318</ele>
        <time>2022-04-04T10:57:53Z</time>
      </trkpt>
      <trkpt lat="46.71019" lon="5.63089">
        <ele>313</ele>
        <time>2022-04-04T10:58:00Z</time>
      </trkpt>
      <trkpt lat="46.71077" lon="5.63116">
        <ele>307</ele>
        <time>2022-04-04T10:58:11Z</time>
      </trkpt>
      <trkpt lat="46.71103" lon="5.6313">
        <ele>305</ele>
        <time>2022-04-04T10:58:16Z</time>
      </trkpt>
      <trkpt lat="46.71151" lon="5.63172">
        <ele>300</ele>
        <time>2022-04-04T10:58:26Z</time>
      </trkpt>
      <trkpt lat="46.71191" lon="5.6321">
        <ele>296</ele>
        <time>2022-04-04T10:58:34Z</time>
      </trkpt>
      <trkpt lat="46.712" lon="5.63222">
        <ele>294</ele>
        <time>2022-04-04T10:58:36Z</time>
      </trkpt>
      <trkpt lat="46.71205" lon="5.63238">
        <ele>293</ele>
        <time>2022-04-04T10:58:38Z</time>
      </trkpt>
      <trkpt lat="46.71207" lon="5.6326">
        <ele>292</ele>
        <time>2022-04-04T10:58:41Z</time>
      </trkpt>
      <trkpt lat="46.71207" lon="5.63299">
        <ele>294</ele>
        <time>2022-04-04T10:58:46Z</time>
      </trkpt>
      <trkpt lat="46.71204" lon="5.63326">
        <ele>296</ele>
        <time>2022-04-04T10:58:49Z</time>
      </trkpt>
      <trkpt lat="46.71206" lon="5.63358">
        <ele>297</ele>
        <time>2022-04-04T10:58:53Z</time>
      </trkpt>
      <trkpt lat="46.7122" lon="5.63402">
        <ele>296</ele>
        <time>2022-04-04T10:58:59Z</time>
      </trkpt>
      <trkpt lat="46.71233" lon="5.6343">
        <ele>293</ele>
        <time>2022-04-04T10:59:03Z</time>
      </trkpt>
      <trkpt lat="46.71242" lon="5.63454">
        <ele>291</ele>
        <time>2022-04-04T10:59:07Z</time>
      </trkpt>
      <trkpt lat="46.71244" lon="5.63477">
        <ele>290</ele>
        <time>2022-04-04T10:59:09Z</time>
      </trkpt>
      <trkpt lat="46.71231" lon="5.63576">
        <ele>294</ele>
        <time>2022-04-04T10:59:22Z</time>
      </trkpt>
      <trkpt lat="46.7121" lon="5.63679">
        <ele>299</ele>
        <time>2022-04-04T10:59:35Z</time>
      </trkpt>
      <trkpt lat="46.71201" lon="5.63745">
        <ele>298</ele>
        <time>2022-04-04T10:59:43Z</time>
      </trkpt>
      <trkpt lat="46.71169" lon="5.63813">
        <ele>298</ele>
        <time>2022-04-04T10:59:53Z</time>
      </trkpt>
      <trkpt lat="46.71136" lon="5.63897">
        <ele>309</ele>
        <time>2022-04-04T11:00:05Z</time>
      </trkpt>
      <trkpt lat="46.71132" lon="5.63914">
        <ele>310</ele>
        <time>2022-04-04T11:00:07Z</time>
      </trkpt>
      <trkpt lat="46.71126" lon="5.63952">
        <ele>312</ele>
        <time>2022-04-04T11:00:12Z</time>
      </trkpt>
      <trkpt lat="46.71125" lon="5.63979">
        <ele>312</ele>
        <time>2022-04-04T11:00:15Z</time>
      </trkpt>
      <trkpt lat="46.71134" lon="5.64109">
        <ele>307</ele>
        <time>2022-04-04T11:00:31Z</time>
      </trkpt>
      <trkpt lat="46.71109" lon="5.64269">
        <ele>311</ele>
        <time>2022-04-04T11:00:51Z</time>
      </trkpt>
      <trkpt lat="46.71098" lon="5.64306">
        <ele>311</ele>
        <time>2022-04-04T11:00:56Z</time>
      </trkpt>
      <trkpt lat="46.71031" lon="5.64421">
        <ele>315</ele>
        <time>2022-04-04T11:01:14Z</time>
      </trkpt>
      <trkpt lat="46.71021" lon="5.64434">
        <ele>316</ele>
        <time>2022-04-04T11:01:17Z</time>
      </trkpt>
      <trkpt lat="46.70947" lon="5.64498">
        <ele>312</ele>
        <time>2022-04-04T11:01:32Z</time>
      </trkpt>
      <trkpt lat="46.70905" lon="5.64522">
        <ele>314</ele>
        <time>2022-04-04T11:01:40Z</time>
      </trkpt>
      <trkpt lat="46.70895" lon="5.64534">
        <ele>314</ele>
        <time>2022-04-04T11:01:42Z</time>
      </trkpt>
      <trkpt lat="46.70873" lon="5.64565">
        <ele>311</ele>
        <time>2022-04-04T11:01:48Z</time>
      </trkpt>
      <trkpt lat="46.70852" lon="5.64588">
        <ele>307</ele>
        <time>2022-04-04T11:01:53Z</time>
      </trkpt>
      <trkpt lat="46.70826" lon="5.64605">
        <ele>309</ele>
        <time>2022-04-04T11:01:58Z</time>
      </trkpt>
      <trkpt lat="46.7079" lon="5.64615">
        <ele>312</ele>
        <time>2022-04-04T11:02:04Z</time>
      </trkpt>
      <trkpt lat="46.70767" lon="5.64625">
        <ele>312</ele>
        <time>2022-04-04T11:02:08Z</time>
      </trkpt>
      <trkpt lat="46.70779" lon="5.64686">
        <ele>303</ele>
        <time>2022-04-04T11:02:16Z</time>
      </trkpt>
      <trkpt lat="46.70782" lon="5.64699">
        <ele>304</ele>
        <time>2022-04-04T11:02:18Z</time>
      </trkpt>
      <trkpt lat="46.7078" lon="5.64732">
        <ele>305</ele>
        <time>2022-04-04T11:02:22Z</time>
      </trkpt>
      <trkpt lat="46.70781" lon="5.64744">
        <ele>306</ele>
        <time>2022-04-04T11:02:23Z</time>
      </trkpt>
      <trkpt lat="46.70789" lon="5.64754">
        <ele>308</ele>
        <time>2022-04-04T11:02:25Z</time>
      </trkpt>
      <trkpt lat="46.70795" lon="5.64759">
        <ele>309</ele>
        <time>2022-04-04T11:02:26Z</time>
      </trkpt>
      <trkpt lat="46.70801" lon="5.64761">
        <ele>310</ele>
        <time>2022-04-04T11:02:28Z</time>
      </trkpt>
      <trkpt lat="46.70807" lon="5.64759">
        <ele>310</ele>
        <time>2022-04-04T11:02:29Z</time>
      </trkpt>
      <trkpt lat="46.70842" lon="5.6474">
        <ele>311</ele>
        <time>2022-04-04T11:02:35Z</time>
      </trkpt>
      <trkpt lat="46.70916" lon="5.64705">
        <ele>312</ele>
        <time>2022-04-04T11:02:49Z</time>
      </trkpt>
      <trkpt lat="46.70926" lon="5.64697">
        <ele>312</ele>
        <time>2022-04-04T11:02:51Z</time>
      </trkpt>
      <trkpt lat="46.70931" lon="5.64697">
        <ele>313</ele>
        <time>2022-04-04T11:02:52Z</time>
      </trkpt>
      <trkpt lat="46.70968" lon="5.6467">
        <ele>314</ele>
        <time>2022-04-04T11:02:59Z</time>
      </trkpt>
      <trkpt lat="46.7099" lon="5.64643">
        <ele>314</ele>
        <time>2022-04-04T11:03:05Z</time>
      </trkpt>
      <trkpt lat="46.70999" lon="5.64625">
        <ele>313</ele>
        <time>2022-04-04T11:03:07Z</time>
      </trkpt>
      <trkpt lat="46.71006" lon="5.64596">
        <ele>311</ele>
        <time>2022-04-04T11:03:11Z</time>
      </trkpt>
      <trkpt lat="46.71015" lon="5.64577">
        <ele>311</ele>
        <time>2022-04-04T11:03:14Z</time>
      </trkpt>
      <trkpt lat="46.71062" lon="5.64513">
        <ele>310</ele>
        <time>2022-04-04T11:03:25Z</time>
      </trkpt>
      <trkpt lat="46.71113" lon="5.64449">
        <ele>314</ele>
        <time>2022-04-04T11:03:37Z</time>
      </trkpt>
      <trkpt lat="46.71129" lon="5.64426">
        <ele>313</ele>
        <time>2022-04-04T11:03:41Z</time>
      </trkpt>
      <trkpt lat="46.71159" lon="5.64369">
        <ele>312</ele>
        <time>2022-04-04T11:03:50Z</time>
      </trkpt>
      <trkpt lat="46.71181" lon="5.6431">
        <ele>314</ele>
        <time>2022-04-04T11:03:58Z</time>
      </trkpt>
      <trkpt lat="46.71193" lon="5.64248">
        <ele>312</ele>
        <time>2022-04-04T11:04:06Z</time>
      </trkpt>
      <trkpt lat="46.71196" lon="5.64157">
        <ele>308</ele>
        <time>2022-04-04T11:04:17Z</time>
      </trkpt>
      <trkpt lat="46.71214" lon="5.64005">
        <ele>304</ele>
        <time>2022-04-04T11:04:36Z</time>
      </trkpt>
      <trkpt lat="46.71225" lon="5.63938">
        <ele>301</ele>
        <time>2022-04-04T11:04:44Z</time>
      </trkpt>
      <trkpt lat="46.71239" lon="5.63867">
        <ele>300</ele>
        <time>2022-04-04T11:04:53Z</time>
      </trkpt>
      <trkpt lat="46.71265" lon="5.63771">
        <ele>303</ele>
        <time>2022-04-04T11:05:06Z</time>
      </trkpt>
      <trkpt lat="46.71288" lon="5.63644">
        <ele>297</ele>
        <time>2022-04-04T11:05:22Z</time>
      </trkpt>
      <trkpt lat="46.71298" lon="5.63606">
        <ele>296</ele>
        <time>2022-04-04T11:05:27Z</time>
      </trkpt>
      <trkpt lat="46.71314" lon="5.63571">
        <ele>295</ele>
        <time>2022-04-04T11:05:32Z</time>
      </trkpt>
      <trkpt lat="46.71382" lon="5.63457">
        <ele>293</ele>
        <time>2022-04-04T11:05:51Z</time>
      </trkpt>
      <trkpt lat="46.71417" lon="5.63401">
        <ele>291</ele>
        <time>2022-04-04T11:06:00Z</time>
      </trkpt>
      <trkpt lat="46.71455" lon="5.63344">
        <ele>294</ele>
        <time>2022-04-04T11:06:09Z</time>
      </trkpt>
      <trkpt lat="46.71488" lon="5.63298">
        <ele>294</ele>
        <time>2022-04-04T11:06:18Z</time>
      </trkpt>
      <trkpt lat="46.71526" lon="5.63256">
        <ele>293</ele>
        <time>2022-04-04T11:06:26Z</time>
      </trkpt>
      <trkpt lat="46.71555" lon="5.6323">
        <ele>293</ele>
        <time>2022-04-04T11:06:32Z</time>
      </trkpt>
      <trkpt lat="46.71643" lon="5.63178">
        <ele>291</ele>
        <time>2022-04-04T11:06:49Z</time>
      </trkpt>
      <trkpt lat="46.71663" lon="5.6317">
        <ele>290</ele>
        <time>2022-04-04T11:06:53Z</time>
      </trkpt>
      <trkpt lat="46.7168" lon="5.63167">
        <ele>290</ele>
        <time>2022-04-04T11:06:56Z</time>
      </trkpt>
      <trkpt lat="46.71693" lon="5.63167">
        <ele>290</ele>
        <time>2022-04-04T11:06:58Z</time>
      </trkpt>
      <trkpt lat="46.71712" lon="5.63173">
        <ele>291</ele>
        <time>2022-04-04T11:07:02Z</time>
      </trkpt>
      <trkpt lat="46.7173" lon="5.63183">
        <ele>291</ele>
        <time>2022-04-04T11:07:05Z</time>
      </trkpt>
      <trkpt lat="46.71748" lon="5.632">
        <ele>291</ele>
        <time>2022-04-04T11:07:09Z</time>
      </trkpt>
      <trkpt lat="46.71786" lon="5.63247">
        <ele>291</ele>
        <time>2022-04-04T11:07:18Z</time>
      </trkpt>
      <trkpt lat="46.71804" lon="5.63261">
        <ele>292</ele>
        <time>2022-04-04T11:07:21Z</time>
      </trkpt>
      <trkpt lat="46.71832" lon="5.63278">
        <ele>292</ele>
        <time>2022-04-04T11:07:27Z</time>
      </trkpt>
      <trkpt lat="46.71859" lon="5.63289">
        <ele>293</ele>
        <time>2022-04-04T11:07:32Z</time>
      </trkpt>
      <trkpt lat="46.71877" lon="5.63292">
        <ele>293</ele>
        <time>2022-04-04T11:07:35Z</time>
      </trkpt>
      <trkpt lat="46.71927" lon="5.63291">
        <ele>293</ele>
        <time>2022-04-04T11:07:44Z</time>
      </trkpt>
      <trkpt lat="46.71943" lon="5.63294">
        <ele>293</ele>
        <time>2022-04-04T11:07:47Z</time>
      </trkpt>
      <trkpt lat="46.71961" lon="5.63302">
        <ele>293</ele>
        <time>2022-04-04T11:07:50Z</time>
      </trkpt>
      <trkpt lat="46.71984" lon="5.63316">
        <ele>292</ele>
        <time>2022-04-04T11:07:54Z</time>
      </trkpt>
      <trkpt lat="46.7204" lon="5.6337">
        <ele>297</ele>
        <time>2022-04-04T11:08:06Z</time>
      </trkpt>
      <trkpt lat="46.72057" lon="5.63381">
        <ele>298</ele>
        <time>2022-04-04T11:08:10Z</time>
      </trkpt>
      <trkpt lat="46.72084" lon="5.63393">
        <ele>298</ele>
        <time>2022-04-04T11:08:15Z</time>
      </trkpt>
      <trkpt lat="46.72124" lon="5.63403">
        <ele>295</ele>
        <time>2022-04-04T11:08:22Z</time>
      </trkpt>
      <trkpt lat="46.72159" lon="5.63416">
        <ele>292</ele>
        <time>2022-04-04T11:08:28Z</time>
      </trkpt>
      <trkpt lat="46.72202" lon="5.63447">
        <ele>293</ele>
        <time>2022-04-04T11:08:37Z</time>
      </trkpt>
      <trkpt lat="46.72314" lon="5.63565">
        <ele>294</ele>
        <time>2022-04-04T11:09:01Z</time>
      </trkpt>
      <trkpt lat="46.7235" lon="5.63616">
        <ele>295</ele>
        <time>2022-04-04T11:09:10Z</time>
      </trkpt>
      <trkpt lat="46.72373" lon="5.6364">
        <ele>294</ele>
        <time>2022-04-04T11:09:15Z</time>
      </trkpt>
      <trkpt lat="46.72435" lon="5.63699">
        <ele>294</ele>
        <time>2022-04-04T11:09:29Z</time>
      </trkpt>
      <trkpt lat="46.7247" lon="5.63727">
        <ele>294</ele>
        <time>2022-04-04T11:09:36Z</time>
      </trkpt>
      <trkpt lat="46.72488" lon="5.63737">
        <ele>292</ele>
        <time>2022-04-04T11:09:39Z</time>
      </trkpt>
      <trkpt lat="46.72541" lon="5.63756">
        <ele>288</ele>
        <time>2022-04-04T11:09:49Z</time>
      </trkpt>
      <trkpt lat="46.72633" lon="5.63794">
        <ele>286</ele>
        <time>2022-04-04T11:10:06Z</time>
      </trkpt>
      <trkpt lat="46.72665" lon="5.63804">
        <ele>285</ele>
        <time>2022-04-04T11:10:12Z</time>
      </trkpt>
      <trkpt lat="46.72684" lon="5.63807">
        <ele>285</ele>
        <time>2022-04-04T11:10:15Z</time>
      </trkpt>
      <trkpt lat="46.72704" lon="5.63806">
        <ele>285</ele>
        <time>2022-04-04T11:10:19Z</time>
      </trkpt>
      <trkpt lat="46.7274" lon="5.63797">
        <ele>285</ele>
        <time>2022-04-04T11:10:25Z</time>
      </trkpt>
      <trkpt lat="46.72801" lon="5.63777">
        <ele>285</ele>
        <time>2022-04-04T11:10:36Z</time>
      </trkpt>
      <trkpt lat="46.72831" lon="5.63764">
        <ele>285</ele>
        <time>2022-04-04T11:10:42Z</time>
      </trkpt>
      <trkpt lat="46.7285" lon="5.63754">
        <ele>288</ele>
        <time>2022-04-04T11:10:45Z</time>
      </trkpt>
      <trkpt lat="46.72876" lon="5.6373">
        <ele>289</ele>
        <time>2022-04-04T11:10:51Z</time>
      </trkpt>
      <trkpt lat="46.72915" lon="5.63681">
        <ele>286</ele>
        <time>2022-04-04T11:11:00Z</time>
      </trkpt>
      <trkpt lat="46.72928" lon="5.63668">
        <ele>285</ele>
        <time>2022-04-04T11:11:03Z</time>
      </trkpt>
      <trkpt lat="46.72948" lon="5.63653">
        <ele>284</ele>
        <time>2022-04-04T11:11:07Z</time>
      </trkpt>
      <trkpt lat="46.72969" lon="5.63642">
        <ele>283</ele>
        <time>2022-04-04T11:11:11Z</time>
      </trkpt>
      <trkpt lat="46.72992" lon="5.63634">
        <ele>282</ele>
        <time>2022-04-04T11:11:15Z</time>
      </trkpt>
      <trkpt lat="46.73011" lon="5.63631">
        <ele>281</ele>
        <time>2022-04-04T11:11:18Z</time>
      </trkpt>
      <trkpt lat="46.73028" lon="5.63632">
        <ele>281</ele>
        <time>2022-04-04T11:11:21Z</time>
      </trkpt>
      <trkpt lat="46.73098" lon="5.63651">
        <ele>281</ele>
        <time>2022-04-04T11:11:34Z</time>
      </trkpt>
      <trkpt lat="46.73117" lon="5.63653">
        <ele>281</ele>
        <time>2022-04-04T11:11:38Z</time>
      </trkpt>
      <trkpt lat="46.73248" lon="5.63654">
        <ele>278</ele>
        <time>2022-04-04T11:12:01Z</time>
      </trkpt>
      <trkpt lat="46.73267" lon="5.63652">
        <ele>278</ele>
        <time>2022-04-04T11:12:04Z</time>
      </trkpt>
      <trkpt lat="46.73284" lon="5.63647">
        <ele>278</ele>
        <time>2022-04-04T11:12:07Z</time>
      </trkpt>
      <trkpt lat="46.73305" lon="5.63635">
        <ele>277</ele>
        <time>2022-04-04T11:12:11Z</time>
      </trkpt>
      <trkpt lat="46.73335" lon="5.63608">
        <ele>275</ele>
        <time>2022-04-04T11:12:18Z</time>
      </trkpt>
      <trkpt lat="46.73366" lon="5.63566">
        <ele>274</ele>
        <time>2022-04-04T11:12:25Z</time>
      </trkpt>
      <trkpt lat="46.73388" lon="5.63546">
        <ele>275</ele>
        <time>2022-04-04T11:12:30Z</time>
      </trkpt>
      <trkpt lat="46.73485" lon="5.63477">
        <ele>275</ele>
        <time>2022-04-04T11:12:49Z</time>
      </trkpt>
      <trkpt lat="46.73509" lon="5.63464">
        <ele>275</ele>
        <time>2022-04-04T11:12:54Z</time>
      </trkpt>
      <trkpt lat="46.73525" lon="5.63459">
        <ele>275</ele>
        <time>2022-04-04T11:12:56Z</time>
      </trkpt>
      <trkpt lat="46.73562" lon="5.63458">
        <ele>275</ele>
        <time>2022-04-04T11:13:03Z</time>
      </trkpt>
      <trkpt lat="46.7358" lon="5.63462">
        <ele>275</ele>
        <time>2022-04-04T11:13:06Z</time>
      </trkpt>
      <trkpt lat="46.73614" lon="5.63477">
        <ele>273</ele>
        <time>2022-04-04T11:13:13Z</time>
      </trkpt>
      <trkpt lat="46.73635" lon="5.63482">
        <ele>273</ele>
        <time>2022-04-04T11:13:16Z</time>
      </trkpt>
      <trkpt lat="46.73653" lon="5.63482">
        <ele>272</ele>
        <time>2022-04-04T11:13:20Z</time>
      </trkpt>
      <trkpt lat="46.7369" lon="5.63484">
        <ele>272</ele>
        <time>2022-04-04T11:13:26Z</time>
      </trkpt>
      <trkpt lat="46.73687" lon="5.6353">
        <ele>272</ele>
        <time>2022-04-04T11:13:32Z</time>
      </trkpt>
      <trkpt lat="46.73693" lon="5.63624">
        <ele>274</ele>
        <time>2022-04-04T11:13:43Z</time>
      </trkpt>
      <trkpt lat="46.73696" lon="5.63725">
        <ele>278</ele>
        <time>2022-04-04T11:13:56Z</time>
      </trkpt>
      <trkpt lat="46.73695" lon="5.63773">
        <ele>280</ele>
        <time>2022-04-04T11:14:01Z</time>
      </trkpt>
      <trkpt lat="46.73683" lon="5.6386">
        <ele>281</ele>
        <time>2022-04-04T11:14:12Z</time>
      </trkpt>
      <trkpt lat="46.73674" lon="5.6399">
        <ele>286</ele>
        <time>2022-04-04T11:14:28Z</time>
      </trkpt>
      <trkpt lat="46.7366" lon="5.64057">
        <ele>291</ele>
        <time>2022-04-04T11:14:37Z</time>
      </trkpt>
      <trkpt lat="46.73652" lon="5.64082">
        <ele>293</ele>
        <time>2022-04-04T11:14:40Z</time>
      </trkpt>
      <trkpt lat="46.73644" lon="5.641">
        <ele>295</ele>
        <time>2022-04-04T11:14:43Z</time>
      </trkpt>
      <trkpt lat="46.73622" lon="5.64138">
        <ele>296</ele>
        <time>2022-04-04T11:14:49Z</time>
      </trkpt>
      <trkpt lat="46.73609" lon="5.64185">
        <ele>302</ele>
        <time>2022-04-04T11:14:55Z</time>
      </trkpt>
      <trkpt lat="46.73604" lon="5.64198">
        <ele>304</ele>
        <time>2022-04-04T11:14:57Z</time>
      </trkpt>
      <trkpt lat="46.73596" lon="5.64208">
        <ele>303</ele>
        <time>2022-04-04T11:14:59Z</time>
      </trkpt>
      <trkpt lat="46.73585" lon="5.64216">
        <ele>301</ele>
        <time>2022-04-04T11:15:01Z</time>
      </trkpt>
      <trkpt lat="46.73568" lon="5.64221">
        <ele>299</ele>
        <time>2022-04-04T11:15:04Z</time>
      </trkpt>
      <trkpt lat="46.73548" lon="5.64231">
        <ele>297</ele>
        <time>2022-04-04T11:15:08Z</time>
      </trkpt>
      <trkpt lat="46.73536" lon="5.64241">
        <ele>296</ele>
        <time>2022-04-04T11:15:10Z</time>
      </trkpt>
      <trkpt lat="46.73523" lon="5.64257">
        <ele>295</ele>
        <time>2022-04-04T11:15:13Z</time>
      </trkpt>
      <trkpt lat="46.73504" lon="5.64284">
        <ele>295</ele>
        <time>2022-04-04T11:15:18Z</time>
      </trkpt>
      <trkpt lat="46.73494" lon="5.64303">
        <ele>297</ele>
        <time>2022-04-04T11:15:21Z</time>
      </trkpt>
      <trkpt lat="46.73489" lon="5.6432">
        <ele>298</ele>
        <time>2022-04-04T11:15:23Z</time>
      </trkpt>
      <trkpt lat="46.73487" lon="5.6434">
        <ele>300</ele>
        <time>2022-04-04T11:15:26Z</time>
      </trkpt>
      <trkpt lat="46.73487" lon="5.64353">
        <ele>299</ele>
        <time>2022-04-04T11:15:27Z</time>
      </trkpt>
      <trkpt lat="46.73491" lon="5.64369">
        <ele>300</ele>
        <time>2022-04-04T11:15:29Z</time>
      </trkpt>
      <trkpt lat="46.73536" lon="5.64514">
        <ele>293</ele>
        <time>2022-04-04T11:15:49Z</time>
      </trkpt>
      <trkpt lat="46.73564" lon="5.64582">
        <ele>292</ele>
        <time>2022-04-04T11:15:58Z</time>
      </trkpt>
      <trkpt lat="46.73599" lon="5.64646">
        <ele>292</ele>
        <time>2022-04-04T11:16:08Z</time>
      </trkpt>
      <trkpt lat="46.73626" lon="5.64689">
        <ele>292</ele>
        <time>2022-04-04T11:16:15Z</time>
      </trkpt>
      <trkpt lat="46.73644" lon="5.64711">
        <ele>293</ele>
        <time>2022-04-04T11:16:20Z</time>
      </trkpt>
      <trkpt lat="46.73701" lon="5.64769">
        <ele>295</ele>
        <time>2022-04-04T11:16:32Z</time>
      </trkpt>
      <trkpt lat="46.7372" lon="5.64791">
        <ele>295</ele>
        <time>2022-04-04T11:16:36Z</time>
      </trkpt>
      <trkpt lat="46.73729" lon="5.64804">
        <ele>295</ele>
        <time>2022-04-04T11:16:39Z</time>
      </trkpt>
      <trkpt lat="46.73735" lon="5.64818">
        <ele>294</ele>
        <time>2022-04-04T11:16:41Z</time>
      </trkpt>
      <trkpt lat="46.73751" lon="5.64882">
        <ele>295</ele>
        <time>2022-04-04T11:16:49Z</time>
      </trkpt>
      <trkpt lat="46.73762" lon="5.64916">
        <ele>296</ele>
        <time>2022-04-04T11:16:53Z</time>
      </trkpt>
      <trkpt lat="46.73778" lon="5.64955">
        <ele>297</ele>
        <time>2022-04-04T11:16:59Z</time>
      </trkpt>
      <trkpt lat="46.73812" lon="5.65009">
        <ele>300</ele>
        <time>2022-04-04T11:17:08Z</time>
      </trkpt>
      <trkpt lat="46.73844" lon="5.65081">
        <ele>301</ele>
        <time>2022-04-04T11:17:18Z</time>
      </trkpt>
      <trkpt lat="46.73861" lon="5.6511">
        <ele>303</ele>
        <time>2022-04-04T11:17:23Z</time>
      </trkpt>
      <trkpt lat="46.73891" lon="5.65149">
        <ele>304</ele>
        <time>2022-04-04T11:17:30Z</time>
      </trkpt>
      <trkpt lat="46.73905" lon="5.65164">
        <ele>304</ele>
        <time>2022-04-04T11:17:33Z</time>
      </trkpt>
      <trkpt lat="46.73916" lon="5.65172">
        <ele>304</ele>
        <time>2022-04-04T11:17:35Z</time>
      </trkpt>
      <trkpt lat="46.7393" lon="5.65174">
        <ele>304</ele>
        <time>2022-04-04T11:17:38Z</time>
      </trkpt>
      <trkpt lat="46.7396" lon="5.65174">
        <ele>306</ele>
        <time>2022-04-04T11:17:43Z</time>
      </trkpt>
      <trkpt lat="46.74016" lon="5.65167">
        <ele>310</ele>
        <time>2022-04-04T11:17:53Z</time>
      </trkpt>
      <trkpt lat="46.74028" lon="5.65169">
        <ele>311</ele>
        <time>2022-04-04T11:17:55Z</time>
      </trkpt>
      <trkpt lat="46.74041" lon="5.65176">
        <ele>312</ele>
        <time>2022-04-04T11:17:58Z</time>
      </trkpt>
      <trkpt lat="46.74135" lon="5.65268">
        <ele>313</ele>
        <time>2022-04-04T11:18:18Z</time>
      </trkpt>
      <trkpt lat="46.74323" lon="5.6549">
        <ele>316</ele>
        <time>2022-04-04T11:19:01Z</time>
      </trkpt>
      <trkpt lat="46.7438" lon="5.65547">
        <ele>318</ele>
        <time>2022-04-04T11:19:13Z</time>
      </trkpt>
      <trkpt lat="46.7445" lon="5.6561">
        <ele>318</ele>
        <time>2022-04-04T11:19:28Z</time>
      </trkpt>
      <trkpt lat="46.74468" lon="5.65629">
        <ele>317</ele>
        <time>2022-04-04T11:19:32Z</time>
      </trkpt>
      <trkpt lat="46.74561" lon="5.65743">
        <ele>313</ele>
        <time>2022-04-04T11:19:54Z</time>
      </trkpt>
      <trkpt lat="46.74571" lon="5.65762">
        <ele>312</ele>
        <time>2022-04-04T11:19:57Z</time>
      </trkpt>
      <trkpt lat="46.74603" lon="5.65838">
        <ele>316</ele>
        <time>2022-04-04T11:20:07Z</time>
      </trkpt>
      <trkpt lat="46.74695" lon="5.66014">
        <ele>319</ele>
        <time>2022-04-04T11:20:34Z</time>
      </trkpt>
      <trkpt lat="46.74719" lon="5.66072">
        <ele>321</ele>
        <time>2022-04-04T11:20:43Z</time>
      </trkpt>
      <trkpt lat="46.74738" lon="5.66109">
        <ele>321</ele>
        <time>2022-04-04T11:20:48Z</time>
      </trkpt>
      <trkpt lat="46.74746" lon="5.66131">
        <ele>320</ele>
        <time>2022-04-04T11:20:51Z</time>
      </trkpt>
      <trkpt lat="46.74752" lon="5.66155">
        <ele>319</ele>
        <time>2022-04-04T11:20:54Z</time>
      </trkpt>
      <trkpt lat="46.74756" lon="5.66188">
        <ele>317</ele>
        <time>2022-04-04T11:20:59Z</time>
      </trkpt>
      <trkpt lat="46.74765" lon="5.66277">
        <ele>316</ele>
        <time>2022-04-04T11:21:09Z</time>
      </trkpt>
      <trkpt lat="46.74771" lon="5.66369">
        <ele>320</ele>
        <time>2022-04-04T11:21:21Z</time>
      </trkpt>
      <trkpt lat="46.74768" lon="5.66429">
        <ele>323</ele>
        <time>2022-04-04T11:21:28Z</time>
      </trkpt>
      <trkpt lat="46.74778" lon="5.66502">
        <ele>326</ele>
        <time>2022-04-04T11:21:37Z</time>
      </trkpt>
      <trkpt lat="46.74784" lon="5.66603">
        <ele>322</ele>
        <time>2022-04-04T11:21:50Z</time>
      </trkpt>
      <trkpt lat="46.74787" lon="5.66626">
        <ele>321</ele>
        <time>2022-04-04T11:21:52Z</time>
      </trkpt>
      <trkpt lat="46.74794" lon="5.66647">
        <ele>321</ele>
        <time>2022-04-04T11:21:55Z</time>
      </trkpt>
      <trkpt lat="46.74804" lon="5.66667">
        <ele>321</ele>
        <time>2022-04-04T11:21:58Z</time>
      </trkpt>
      <trkpt lat="46.74843" lon="5.66731">
        <ele>324</ele>
        <time>2022-04-04T11:22:09Z</time>
      </trkpt>
      <trkpt lat="46.7493" lon="5.66884">
        <ele>330</ele>
        <time>2022-04-04T11:22:33Z</time>
      </trkpt>
      <trkpt lat="46.74956" lon="5.66916">
        <ele>331</ele>
        <time>2022-04-04T11:22:39Z</time>
      </trkpt>
      <trkpt lat="46.74967" lon="5.66927">
        <ele>332</ele>
        <time>2022-04-04T11:22:41Z</time>
      </trkpt>
      <trkpt lat="46.74993" lon="5.66945">
        <ele>334</ele>
        <time>2022-04-04T11:22:46Z</time>
      </trkpt>
      <trkpt lat="46.7511" lon="5.67021">
        <ele>339</ele>
        <time>2022-04-04T11:23:09Z</time>
      </trkpt>
      <trkpt lat="46.75124" lon="5.67028">
        <ele>340</ele>
        <time>2022-04-04T11:23:12Z</time>
      </trkpt>
      <trkpt lat="46.75134" lon="5.67031">
        <ele>341</ele>
        <time>2022-04-04T11:23:14Z</time>
      </trkpt>
      <trkpt lat="46.75152" lon="5.67031">
        <ele>343</ele>
        <time>2022-04-04T11:23:17Z</time>
      </trkpt>
      <trkpt lat="46.75216" lon="5.67017">
        <ele>349</ele>
        <time>2022-04-04T11:23:28Z</time>
      </trkpt>
      <trkpt lat="46.75233" lon="5.67017">
        <ele>350</ele>
        <time>2022-04-04T11:23:31Z</time>
      </trkpt>
      <trkpt lat="46.75281" lon="5.6703">
        <ele>352</ele>
        <time>2022-04-04T11:23:40Z</time>
      </trkpt>
      <trkpt lat="46.75308" lon="5.67043">
        <ele>350</ele>
        <time>2022-04-04T11:23:45Z</time>
      </trkpt>
      <trkpt lat="46.75332" lon="5.67062">
        <ele>346</ele>
        <time>2022-04-04T11:23:50Z</time>
      </trkpt>
      <trkpt lat="46.75466" lon="5.67184">
        <ele>350</ele>
        <time>2022-04-04T11:24:18Z</time>
      </trkpt>
      <trkpt lat="46.75485" lon="5.67199">
        <ele>350</ele>
        <time>2022-04-04T11:24:22Z</time>
      </trkpt>
      <trkpt lat="46.75512" lon="5.67209">
        <ele>352</ele>
        <time>2022-04-04T11:24:27Z</time>
      </trkpt>
      <trkpt lat="46.75597" lon="5.67213">
        <ele>361</ele>
        <time>2022-04-04T11:24:42Z</time>
      </trkpt>
      <trkpt lat="46.75606" lon="5.67218">
        <ele>361</ele>
        <time>2022-04-04T11:24:44Z</time>
      </trkpt>
      <trkpt lat="46.75664" lon="5.67263">
        <ele>362</ele>
        <time>2022-04-04T11:24:55Z</time>
      </trkpt>
      <trkpt lat="46.75684" lon="5.67272">
        <ele>363</ele>
        <time>2022-04-04T11:24:59Z</time>
      </trkpt>
      <trkpt lat="46.75711" lon="5.67279">
        <ele>365</ele>
        <time>2022-04-04T11:25:04Z</time>
      </trkpt>
      <trkpt lat="46.75775" lon="5.67293">
        <ele>369</ele>
        <time>2022-04-04T11:25:16Z</time>
      </trkpt>
      <trkpt lat="46.75904" lon="5.67363">
        <ele>370</ele>
        <time>2022-04-04T11:25:40Z</time>
      </trkpt>
      <trkpt lat="46.75946" lon="5.6739">
        <ele>371</ele>
        <time>2022-04-04T11:25:48Z</time>
      </trkpt>
      <trkpt lat="46.76015" lon="5.67451">
        <ele>373</ele>
        <time>2022-04-04T11:26:03Z</time>
      </trkpt>
      <trkpt lat="46.76025" lon="5.67463">
        <ele>373</ele>
        <time>2022-04-04T11:26:05Z</time>
      </trkpt>
      <trkpt lat="46.76033" lon="5.67476">
        <ele>372</ele>
        <time>2022-04-04T11:26:07Z</time>
      </trkpt>
      <trkpt lat="46.76051" lon="5.6752">
        <ele>369</ele>
        <time>2022-04-04T11:26:13Z</time>
      </trkpt>
      <trkpt lat="46.76062" lon="5.67546">
        <ele>368</ele>
        <time>2022-04-04T11:26:17Z</time>
      </trkpt>
      <trkpt lat="46.76103" lon="5.67622">
        <ele>370</ele>
        <time>2022-04-04T11:26:29Z</time>
      </trkpt>
      <trkpt lat="46.76113" lon="5.67648">
        <ele>370</ele>
        <time>2022-04-04T11:26:32Z</time>
      </trkpt>
      <trkpt lat="46.76121" lon="5.67677">
        <ele>370</ele>
        <time>2022-04-04T11:26:36Z</time>
      </trkpt>
      <trkpt lat="46.76128" lon="5.6771">
        <ele>369</ele>
        <time>2022-04-04T11:26:40Z</time>
      </trkpt>
      <trkpt lat="46.76138" lon="5.67776">
        <ele>369</ele>
        <time>2022-04-04T11:26:49Z</time>
      </trkpt>
      <trkpt lat="46.76162" lon="5.67858">
        <ele>371</ele>
        <time>2022-04-04T11:27:00Z</time>
      </trkpt>
      <trkpt lat="46.76166" lon="5.6789">
        <ele>372</ele>
        <time>2022-04-04T11:27:04Z</time>
      </trkpt>
      <trkpt lat="46.76138" lon="5.68051">
        <ele>366</ele>
        <time>2022-04-04T11:27:24Z</time>
      </trkpt>
      <trkpt lat="46.76138" lon="5.68071">
        <ele>366</ele>
        <time>2022-04-04T11:27:26Z</time>
      </trkpt>
      <trkpt lat="46.76138" lon="5.68089">
        <ele>366</ele>
        <time>2022-04-04T11:27:28Z</time>
      </trkpt>
      <trkpt lat="46.76144" lon="5.68116">
        <ele>365</ele>
        <time>2022-04-04T11:27:32Z</time>
      </trkpt>
      <trkpt lat="46.7617" lon="5.68199">
        <ele>364</ele>
        <time>2022-04-04T11:27:43Z</time>
      </trkpt>
      <trkpt lat="46.76178" lon="5.68223">
        <ele>364</ele>
        <time>2022-04-04T11:27:46Z</time>
      </trkpt>
      <trkpt lat="46.7619" lon="5.68295">
        <ele>365</ele>
        <time>2022-04-04T11:27:55Z</time>
      </trkpt>
      <trkpt lat="46.76201" lon="5.68338">
        <ele>367</ele>
        <time>2022-04-04T11:28:01Z</time>
      </trkpt>
      <trkpt lat="46.762" lon="5.68347">
        <ele>368</ele>
        <time>2022-04-04T11:28:02Z</time>
      </trkpt>
      <trkpt lat="46.76191" lon="5.68374">
        <ele>368</ele>
        <time>2022-04-04T11:28:06Z</time>
      </trkpt>
      <trkpt lat="46.76183" lon="5.68391">
        <ele>367</ele>
        <time>2022-04-04T11:28:08Z</time>
      </trkpt>
      <trkpt lat="46.7615" lon="5.68426">
        <ele>364</ele>
        <time>2022-04-04T11:28:15Z</time>
      </trkpt>
      <trkpt lat="46.76145" lon="5.68435">
        <ele>364</ele>
        <time>2022-04-04T11:28:17Z</time>
      </trkpt>
      <trkpt lat="46.76142" lon="5.68447">
        <ele>364</ele>
        <time>2022-04-04T11:28:18Z</time>
      </trkpt>
      <trkpt lat="46.7614" lon="5.68467">
        <ele>365</ele>
        <time>2022-04-04T11:28:21Z</time>
      </trkpt>
      <trkpt lat="46.7614" lon="5.68486">
        <ele>366</ele>
        <time>2022-04-04T11:28:23Z</time>
      </trkpt>
      <trkpt lat="46.76147" lon="5.68519">
        <ele>369</ele>
        <time>2022-04-04T11:28:27Z</time>
      </trkpt>
      <trkpt lat="46.76162" lon="5.68574">
        <ele>373</ele>
        <time>2022-04-04T11:28:35Z</time>
      </trkpt>
      <trkpt lat="46.76165" lon="5.68592">
        <ele>374</ele>
        <time>2022-04-04T11:28:37Z</time>
      </trkpt>
      <trkpt lat="46.76166" lon="5.68608">
        <ele>374</ele>
        <time>2022-04-04T11:28:39Z</time>
      </trkpt>
      <trkpt lat="46.76159" lon="5.68685">
        <ele>374</ele>
        <time>2022-04-04T11:28:48Z</time>
      </trkpt>
      <trkpt lat="46.76159" lon="5.68714">
        <ele>375</ele>
        <time>2022-04-04T11:28:52Z</time>
      </trkpt>
      <trkpt lat="46.76144" lon="5.68809">
        <ele>376</ele>
        <time>2022-04-04T11:29:04Z</time>
      </trkpt>
      <trkpt lat="46.76142" lon="5.68827">
        <ele>376</ele>
        <time>2022-04-04T11:29:06Z</time>
      </trkpt>
      <trkpt lat="46.76143" lon="5.6886">
        <ele>377</ele>
        <time>2022-04-04T11:29:10Z</time>
      </trkpt>
      <trkpt lat="46.76148" lon="5.68885">
        <ele>377</ele>
        <time>2022-04-04T11:29:13Z</time>
      </trkpt>
      <trkpt lat="46.76154" lon="5.68913">
        <ele>378</ele>
        <time>2022-04-04T11:29:17Z</time>
      </trkpt>
      <trkpt lat="46.76154" lon="5.68956">
        <ele>387</ele>
        <time>2022-04-04T11:29:22Z</time>
      </trkpt>
      <trkpt lat="46.76157" lon="5.68973">
        <ele>391</ele>
        <time>2022-04-04T11:29:24Z</time>
      </trkpt>
      <trkpt lat="46.76163" lon="5.68983">
        <ele>394</ele>
        <time>2022-04-04T11:29:26Z</time>
      </trkpt>
      <trkpt lat="46.76271" lon="5.69073">
        <ele>406</ele>
        <time>2022-04-04T11:29:48Z</time>
      </trkpt>
      <trkpt lat="46.76293" lon="5.69097">
        <ele>410</ele>
        <time>2022-04-04T11:29:53Z</time>
      </trkpt>
      <trkpt lat="46.76319" lon="5.69133">
        <ele>416</ele>
        <time>2022-04-04T11:29:59Z</time>
      </trkpt>
      <trkpt lat="46.76392" lon="5.69215">
        <ele>430</ele>
        <time>2022-04-04T11:30:15Z</time>
      </trkpt>
      <trkpt lat="46.76491" lon="5.69305">
        <ele>450</ele>
        <time>2022-04-04T11:30:36Z</time>
      </trkpt>
      <trkpt lat="46.76503" lon="5.69314">
        <ele>452</ele>
        <time>2022-04-04T11:30:39Z</time>
      </trkpt>
      <trkpt lat="46.76537" lon="5.69332">
        <ele>467</ele>
        <time>2022-04-04T11:30:45Z</time>
      </trkpt>
      <trkpt lat="46.76543" lon="5.69331">
        <ele>468</ele>
        <time>2022-04-04T11:30:46Z</time>
      </trkpt>
      <trkpt lat="46.76548" lon="5.69326">
        <ele>468</ele>
        <time>2022-04-04T11:30:47Z</time>
      </trkpt>
      <trkpt lat="46.76558" lon="5.69302">
        <ele>465</ele>
        <time>2022-04-04T11:30:51Z</time>
      </trkpt>
      <trkpt lat="46.7657" lon="5.69268">
        <ele>463</ele>
        <time>2022-04-04T11:30:55Z</time>
      </trkpt>
      <trkpt lat="46.76573" lon="5.69253">
        <ele>462</ele>
        <time>2022-04-04T11:30:57Z</time>
      </trkpt>
      <trkpt lat="46.76575" lon="5.69235">
        <ele>466</ele>
        <time>2022-04-04T11:30:59Z</time>
      </trkpt>
      <trkpt lat="46.76575" lon="5.69207">
        <ele>473</ele>
        <time>2022-04-04T11:31:03Z</time>
      </trkpt>
      <trkpt lat="46.76572" lon="5.69184">
        <ele>476</ele>
        <time>2022-04-04T11:31:06Z</time>
      </trkpt>
      <trkpt lat="46.76554" lon="5.69138">
        <ele>472</ele>
        <time>2022-04-04T11:31:12Z</time>
      </trkpt>
      <trkpt lat="46.76517" lon="5.69071">
        <ele>469</ele>
        <time>2022-04-04T11:31:23Z</time>
      </trkpt>
      <trkpt lat="46.76477" lon="5.69007">
        <ele>472</ele>
        <time>2022-04-04T11:31:33Z</time>
      </trkpt>
      <trkpt lat="46.76435" lon="5.68919">
        <ele>482</ele>
        <time>2022-04-04T11:31:46Z</time>
      </trkpt>
      <trkpt lat="46.7641" lon="5.68877">
        <ele>487</ele>
        <time>2022-04-04T11:31:53Z</time>
      </trkpt>
      <trkpt lat="46.7638" lon="5.68835">
        <ele>487</ele>
        <time>2022-04-04T11:32:00Z</time>
      </trkpt>
      <trkpt lat="46.76359" lon="5.688">
        <ele>484</ele>
        <time>2022-04-04T11:32:06Z</time>
      </trkpt>
      <trkpt lat="46.76326" lon="5.68708">
        <ele>483</ele>
        <time>2022-04-04T11:32:19Z</time>
      </trkpt>
      <trkpt lat="46.76324" lon="5.68683">
        <ele>482</ele>
        <time>2022-04-04T11:32:22Z</time>
      </trkpt>
      <trkpt lat="46.76342" lon="5.6862">
        <ele>482</ele>
        <time>2022-04-04T11:32:30Z</time>
      </trkpt>
      <trkpt lat="46.76351" lon="5.68594">
        <ele>480</ele>
        <time>2022-04-04T11:32:34Z</time>
      </trkpt>
      <trkpt lat="46.76357" lon="5.68584">
        <ele>480</ele>
        <time>2022-04-04T11:32:35Z</time>
      </trkpt>
      <trkpt lat="46.76365" lon="5.68576">
        <ele>482</ele>
        <time>2022-04-04T11:32:37Z</time>
      </trkpt>
      <trkpt lat="46.76371" lon="5.68574">
        <ele>484</ele>
        <time>2022-04-04T11:32:38Z</time>
      </trkpt>
      <trkpt lat="46.76389" lon="5.68575">
        <ele>493</ele>
        <time>2022-04-04T11:32:41Z</time>
      </trkpt>
      <trkpt lat="46.76409" lon="5.68583">
        <ele>505</ele>
        <time>2022-04-04T11:32:45Z</time>
      </trkpt>
      <trkpt lat="46.76449" lon="5.68582">
        <ele>513</ele>
        <time>2022-04-04T11:32:52Z</time>
      </trkpt>
      <trkpt lat="46.76465" lon="5.68579">
        <ele>515</ele>
        <time>2022-04-04T11:32:55Z</time>
      </trkpt>
      <trkpt lat="46.76509" lon="5.68576">
        <ele>520</ele>
        <time>2022-04-04T11:33:03Z</time>
      </trkpt>
      <trkpt lat="46.76524" lon="5.68573">
        <ele>521</ele>
        <time>2022-04-04T11:33:06Z</time>
      </trkpt>
      <trkpt lat="46.76537" lon="5.68564">
        <ele>522</ele>
        <time>2022-04-04T11:33:08Z</time>
      </trkpt>
      <trkpt lat="46.7655" lon="5.68552">
        <ele>523</ele>
        <time>2022-04-04T11:33:11Z</time>
      </trkpt>
      <trkpt lat="46.76566" lon="5.68539">
        <ele>524</ele>
        <time>2022-04-04T11:33:14Z</time>
      </trkpt>
      <trkpt lat="46.7658" lon="5.68531">
        <ele>525</ele>
        <time>2022-04-04T11:33:17Z</time>
      </trkpt>
      <trkpt lat="46.76592" lon="5.6853">
        <ele>526</ele>
        <time>2022-04-04T11:33:19Z</time>
      </trkpt>
      <trkpt lat="46.76612" lon="5.68547">
        <ele>527</ele>
        <time>2022-04-04T11:33:23Z</time>
      </trkpt>
      <trkpt lat="46.76621" lon="5.68551">
        <ele>528</ele>
        <time>2022-04-04T11:33:25Z</time>
      </trkpt>
      <trkpt lat="46.76641" lon="5.68553">
        <ele>528</ele>
        <time>2022-04-04T11:33:28Z</time>
      </trkpt>
      <trkpt lat="46.76641" lon="5.68933">
        <ele>535</ele>
        <time>2022-04-04T11:34:15Z</time>
      </trkpt>
      <trkpt lat="46.76654" lon="5.69093">
        <ele>532</ele>
        <time>2022-04-04T11:34:34Z</time>
      </trkpt>
      <trkpt lat="46.76677" lon="5.6926">
        <ele>529</ele>
        <time>2022-04-04T11:34:55Z</time>
      </trkpt>
      <trkpt lat="46.76685" lon="5.69305">
        <ele>529</ele>
        <time>2022-04-04T11:35:01Z</time>
      </trkpt>
      <trkpt lat="46.76705" lon="5.69382">
        <ele>531</ele>
        <time>2022-04-04T11:35:11Z</time>
      </trkpt>
      <trkpt lat="46.76732" lon="5.6949">
        <ele>530</ele>
        <time>2022-04-04T11:35:25Z</time>
      </trkpt>
      <trkpt lat="46.76738" lon="5.69535">
        <ele>530</ele>
        <time>2022-04-04T11:35:30Z</time>
      </trkpt>
      <trkpt lat="46.76741" lon="5.69627">
        <ele>530</ele>
        <time>2022-04-04T11:35:42Z</time>
      </trkpt>
      <trkpt lat="46.76739" lon="5.69675">
        <ele>530</ele>
        <time>2022-04-04T11:35:47Z</time>
      </trkpt>
      <trkpt lat="46.76719" lon="5.69788">
        <ele>533</ele>
        <time>2022-04-04T11:36:02Z</time>
      </trkpt>
      <trkpt lat="46.76687" lon="5.69945">
        <ele>533</ele>
        <time>2022-04-04T11:36:22Z</time>
      </trkpt>
      <trkpt lat="46.76681" lon="5.69988">
        <ele>532</ele>
        <time>2022-04-04T11:36:27Z</time>
      </trkpt>
      <trkpt lat="46.76631" lon="5.7044">
        <ele>526</ele>
        <time>2022-04-04T11:37:23Z</time>
      </trkpt>
      <trkpt lat="46.76612" lon="5.70575">
        <ele>528</ele>
        <time>2022-04-04T11:37:40Z</time>
      </trkpt>
      <trkpt lat="46.76541" lon="5.70897">
        <ele>530</ele>
        <time>2022-04-04T11:38:21Z</time>
      </trkpt>
      <trkpt lat="46.76524" lon="5.71017">
        <ele>526</ele>
        <time>2022-04-04T11:38:36Z</time>
      </trkpt>
      <trkpt lat="46.76454" lon="5.71654">
        <ele>524</ele>
        <time>2022-04-04T11:39:54Z</time>
      </trkpt>
      <trkpt lat="46.76445" lon="5.71714">
        <ele>524</ele>
        <time>2022-04-04T11:40:02Z</time>
      </trkpt>
      <trkpt lat="46.76435" lon="5.7176">
        <ele>525</ele>
        <time>2022-04-04T11:40:08Z</time>
      </trkpt>
      <trkpt lat="46.76425" lon="5.71795">
        <ele>525</ele>
        <time>2022-04-04T11:40:12Z</time>
      </trkpt>
      <trkpt lat="46.76371" lon="5.71972">
        <ele>526</ele>
        <time>2022-04-04T11:40:36Z</time>
      </trkpt>
      <trkpt lat="46.76363" lon="5.72011">
        <ele>526</ele>
        <time>2022-04-04T11:40:41Z</time>
      </trkpt>
      <trkpt lat="46.76341" lon="5.72142">
        <ele>525</ele>
        <time>2022-04-04T11:40:57Z</time>
      </trkpt>
      <trkpt lat="46.76327" lon="5.72207">
        <ele>525</ele>
        <time>2022-04-04T11:41:06Z</time>
      </trkpt>
      <trkpt lat="46.7631" lon="5.72264">
        <ele>525</ele>
        <time>2022-04-04T11:41:13Z</time>
      </trkpt>
      <trkpt lat="46.75558" lon="5.74447">
        <ele>548</ele>
        <time>2022-04-04T11:46:11Z</time>
      </trkpt>
      <trkpt lat="46.75549" lon="5.74466">
        <ele>549</ele>
        <time>2022-04-04T11:46:14Z</time>
      </trkpt>
      <trkpt lat="46.7554" lon="5.74481">
        <ele>549</ele>
        <time>2022-04-04T11:46:16Z</time>
      </trkpt>
      <trkpt lat="46.75534" lon="5.74484">
        <ele>550</ele>
        <time>2022-04-04T11:46:17Z</time>
      </trkpt>
      <trkpt lat="46.75519" lon="5.74482">
        <ele>550</ele>
        <time>2022-04-04T11:46:20Z</time>
      </trkpt>
      <trkpt lat="46.75457" lon="5.74458">
        <ele>550</ele>
        <time>2022-04-04T11:46:32Z</time>
      </trkpt>
      <trkpt lat="46.75449" lon="5.74457">
        <ele>549</ele>
        <time>2022-04-04T11:46:33Z</time>
      </trkpt>
      <trkpt lat="46.7544" lon="5.74463">
        <ele>549</ele>
        <time>2022-04-04T11:46:35Z</time>
      </trkpt>
      <trkpt lat="46.75434" lon="5.7447">
        <ele>549</ele>
        <time>2022-04-04T11:46:36Z</time>
      </trkpt>
      <trkpt lat="46.75389" lon="5.74549">
        <ele>547</ele>
        <time>2022-04-04T11:46:49Z</time>
      </trkpt>
      <trkpt lat="46.75375" lon="5.74576">
        <ele>547</ele>
        <time>2022-04-04T11:46:53Z</time>
      </trkpt>
      <trkpt lat="46.75367" lon="5.74595">
        <ele>546</ele>
        <time>2022-04-04T11:46:55Z</time>
      </trkpt>
      <trkpt lat="46.75343" lon="5.74675">
        <ele>547</ele>
        <time>2022-04-04T11:47:06Z</time>
      </trkpt>
      <trkpt lat="46.75335" lon="5.7471">
        <ele>548</ele>
        <time>2022-04-04T11:47:11Z</time>
      </trkpt>
      <trkpt lat="46.75329" lon="5.7475">
        <ele>549</ele>
        <time>2022-04-04T11:47:16Z</time>
      </trkpt>
      <trkpt lat="46.75325" lon="5.74792">
        <ele>551</ele>
        <time>2022-04-04T11:47:21Z</time>
      </trkpt>
      <trkpt lat="46.7532" lon="5.74812">
        <ele>552</ele>
        <time>2022-04-04T11:47:23Z</time>
      </trkpt>
      <trkpt lat="46.75232" lon="5.75053">
        <ele>557</ele>
        <time>2022-04-04T11:47:57Z</time>
      </trkpt>
      <trkpt lat="46.75225" lon="5.7508">
        <ele>557</ele>
        <time>2022-04-04T11:48:00Z</time>
      </trkpt>
      <trkpt lat="46.75219" lon="5.75112">
        <ele>558</ele>
        <time>2022-04-04T11:48:04Z</time>
      </trkpt>
      <trkpt lat="46.75187" lon="5.75384">
        <ele>560</ele>
        <time>2022-04-04T11:48:38Z</time>
      </trkpt>
      <trkpt lat="46.7518" lon="5.75426">
        <ele>562</ele>
        <time>2022-04-04T11:48:43Z</time>
      </trkpt>
      <trkpt lat="46.75172" lon="5.75458">
        <ele>564</ele>
        <time>2022-04-04T11:48:47Z</time>
      </trkpt>
      <trkpt lat="46.75163" lon="5.75488">
        <ele>566</ele>
        <time>2022-04-04T11:48:51Z</time>
      </trkpt>
      <trkpt lat="46.75061" lon="5.75741">
        <ele>573</ele>
        <time>2022-04-04T11:49:27Z</time>
      </trkpt>
      <trkpt lat="46.74983" lon="5.75913">
        <ele>573</ele>
        <time>2022-04-04T11:49:52Z</time>
      </trkpt>
      <trkpt lat="46.74933" lon="5.76033">
        <ele>574</ele>
        <time>2022-04-04T11:50:09Z</time>
      </trkpt>
      <trkpt lat="46.74858" lon="5.76282">
        <ele>581</ele>
        <time>2022-04-04T11:50:42Z</time>
      </trkpt>
      <trkpt lat="46.74784" lon="5.76469">
        <ele>581</ele>
        <time>2022-04-04T11:51:09Z</time>
      </trkpt>
      <trkpt lat="46.74763" lon="5.76518">
        <ele>580</ele>
        <time>2022-04-04T11:51:16Z</time>
      </trkpt>
      <trkpt lat="46.74735" lon="5.76569">
        <ele>581</ele>
        <time>2022-04-04T11:51:24Z</time>
      </trkpt>
      <trkpt lat="46.74726" lon="5.76581">
        <ele>581</ele>
        <time>2022-04-04T11:51:26Z</time>
      </trkpt>
      <trkpt lat="46.74677" lon="5.76631">
        <ele>582</ele>
        <time>2022-04-04T11:51:37Z</time>
      </trkpt>
      <trkpt lat="46.74606" lon="5.76715">
        <ele>585</ele>
        <time>2022-04-04T11:51:53Z</time>
      </trkpt>
      <trkpt lat="46.74596" lon="5.7673">
        <ele>585</ele>
        <time>2022-04-04T11:51:55Z</time>
      </trkpt>
      <trkpt lat="46.7459" lon="5.76742">
        <ele>585</ele>
        <time>2022-04-04T11:51:57Z</time>
      </trkpt>
      <trkpt lat="46.74588" lon="5.76753">
        <ele>586</ele>
        <time>2022-04-04T11:51:59Z</time>
      </trkpt>
      <trkpt lat="46.74586" lon="5.76765">
        <ele>586</ele>
        <time>2022-04-04T11:52:00Z</time>
      </trkpt>
      <trkpt lat="46.74589" lon="5.76787">
        <ele>587</ele>
        <time>2022-04-04T11:52:03Z</time>
      </trkpt>
      <trkpt lat="46.74595" lon="5.76798">
        <ele>587</ele>
        <time>2022-04-04T11:52:05Z</time>
      </trkpt>
      <trkpt lat="46.74663" lon="5.76892">
        <ele>585</ele>
        <time>2022-04-04T11:52:21Z</time>
      </trkpt>
      <trkpt lat="46.74674" lon="5.7691">
        <ele>586</ele>
        <time>2022-04-04T11:52:24Z</time>
      </trkpt>
      <trkpt lat="46.74686" lon="5.76938">
        <ele>587</ele>
        <time>2022-04-04T11:52:28Z</time>
      </trkpt>
      <trkpt lat="46.74689" lon="5.76952">
        <ele>587</ele>
        <time>2022-04-04T11:52:30Z</time>
      </trkpt>
      <trkpt lat="46.74691" lon="5.76966">
        <ele>588</ele>
        <time>2022-04-04T11:52:32Z</time>
      </trkpt>
      <trkpt lat="46.74687" lon="5.77018">
        <ele>590</ele>
        <time>2022-04-04T11:52:38Z</time>
      </trkpt>
      <trkpt lat="46.74687" lon="5.7703">
        <ele>591</ele>
        <time>2022-04-04T11:52:40Z</time>
      </trkpt>
      <trkpt lat="46.74693" lon="5.77058">
        <ele>593</ele>
        <time>2022-04-04T11:52:43Z</time>
      </trkpt>
      <trkpt lat="46.747" lon="5.77075">
        <ele>594</ele>
        <time>2022-04-04T11:52:46Z</time>
      </trkpt>
      <trkpt lat="46.74937" lon="5.77476">
        <ele>604</ele>
        <time>2022-04-04T11:53:50Z</time>
      </trkpt>
      <trkpt lat="46.74961" lon="5.77518">
        <ele>605</ele>
        <time>2022-04-04T11:53:57Z</time>
      </trkpt>
      <trkpt lat="46.74984" lon="5.77566">
        <ele>606</ele>
        <time>2022-04-04T11:54:04Z</time>
      </trkpt>
      <trkpt lat="46.75018" lon="5.77597">
        <ele>603</ele>
        <time>2022-04-04T11:54:11Z</time>
      </trkpt>
      <trkpt lat="46.75048" lon="5.77639">
        <ele>602</ele>
        <time>2022-04-04T11:54:18Z</time>
      </trkpt>
      <trkpt lat="46.75078" lon="5.77725">
        <ele>603</ele>
        <time>2022-04-04T11:54:30Z</time>
      </trkpt>
      <trkpt lat="46.75091" lon="5.77759">
        <ele>604</ele>
        <time>2022-04-04T11:54:35Z</time>
      </trkpt>
      <trkpt lat="46.75106" lon="5.77777">
        <ele>603</ele>
        <time>2022-04-04T11:54:38Z</time>
      </trkpt>
      <trkpt lat="46.7514" lon="5.77807">
        <ele>600</ele>
        <time>2022-04-04T11:54:46Z</time>
      </trkpt>
      <trkpt lat="46.75148" lon="5.77817">
        <ele>600</ele>
        <time>2022-04-04T11:54:47Z</time>
      </trkpt>
      <trkpt lat="46.7517" lon="5.77856">
        <ele>600</ele>
        <time>2022-04-04T11:54:54Z</time>
      </trkpt>
      <trkpt lat="46.75213" lon="5.7796">
        <ele>602</ele>
        <time>2022-04-04T11:55:08Z</time>
      </trkpt>
      <trkpt lat="46.75221" lon="5.77987">
        <ele>601</ele>
        <time>2022-04-04T11:55:12Z</time>
      </trkpt>
      <trkpt lat="46.75224" lon="5.78006">
        <ele>602</ele>
        <time>2022-04-04T11:55:14Z</time>
      </trkpt>
      <trkpt lat="46.7522" lon="5.78044">
        <ele>603</ele>
        <time>2022-04-04T11:55:19Z</time>
      </trkpt>
      <trkpt lat="46.75132" lon="5.7832">
        <ele>607</ele>
        <time>2022-04-04T11:55:56Z</time>
      </trkpt>
      <trkpt lat="46.7511" lon="5.78382">
        <ele>611</ele>
        <time>2022-04-04T11:56:05Z</time>
      </trkpt>
      <trkpt lat="46.75101" lon="5.78398">
        <ele>611</ele>
        <time>2022-04-04T11:56:07Z</time>
      </trkpt>
      <trkpt lat="46.7509" lon="5.78411">
        <ele>612</ele>
        <time>2022-04-04T11:56:10Z</time>
      </trkpt>
      <trkpt lat="46.74969" lon="5.78492">
        <ele>613</ele>
        <time>2022-04-04T11:56:33Z</time>
      </trkpt>
      <trkpt lat="46.74934" lon="5.78519">
        <ele>613</ele>
        <time>2022-04-04T11:56:40Z</time>
      </trkpt>
      <trkpt lat="46.74923" lon="5.78531">
        <ele>612</ele>
        <time>2022-04-04T11:56:43Z</time>
      </trkpt>
      <trkpt lat="46.74914" lon="5.78544">
        <ele>611</ele>
        <time>2022-04-04T11:56:45Z</time>
      </trkpt>
      <trkpt lat="46.7488" lon="5.78607">
        <ele>606</ele>
        <time>2022-04-04T11:56:55Z</time>
      </trkpt>
      <trkpt lat="46.74866" lon="5.78621">
        <ele>604</ele>
        <time>2022-04-04T11:56:58Z</time>
      </trkpt>
      <trkpt lat="46.74851" lon="5.78628">
        <ele>603</ele>
        <time>2022-04-04T11:57:01Z</time>
      </trkpt>
      <trkpt lat="46.74817" lon="5.78631">
        <ele>600</ele>
        <time>2022-04-04T11:57:07Z</time>
      </trkpt>
      <trkpt lat="46.74793" lon="5.78625">
        <ele>599</ele>
        <time>2022-04-04T11:57:11Z</time>
      </trkpt>
      <trkpt lat="46.74767" lon="5.78613">
        <ele>599</ele>
        <time>2022-04-04T11:57:16Z</time>
      </trkpt>
      <trkpt lat="46.74701" lon="5.7857">
        <ele>598</ele>
        <time>2022-04-04T11:57:29Z</time>
      </trkpt>
      <trkpt lat="46.7467" lon="5.78553">
        <ele>597</ele>
        <time>2022-04-04T11:57:35Z</time>
      </trkpt>
      <trkpt lat="46.74621" lon="5.78541">
        <ele>593</ele>
        <time>2022-04-04T11:57:44Z</time>
      </trkpt>
      <trkpt lat="46.74581" lon="5.78524">
        <ele>592</ele>
        <time>2022-04-04T11:57:51Z</time>
      </trkpt>
      <trkpt lat="46.74547" lon="5.78507">
        <ele>589</ele>
        <time>2022-04-04T11:57:57Z</time>
      </trkpt>
      <trkpt lat="46.74529" lon="5.78497">
        <ele>588</ele>
        <time>2022-04-04T11:58:01Z</time>
      </trkpt>
      <trkpt lat="46.74456" lon="5.7844">
        <ele>585</ele>
        <time>2022-04-04T11:58:16Z</time>
      </trkpt>
      <trkpt lat="46.74451" lon="5.78439">
        <ele>584</ele>
        <time>2022-04-04T11:58:16Z</time>
      </trkpt>
      <trkpt lat="46.74444" lon="5.78444">
        <ele>582</ele>
        <time>2022-04-04T11:58:18Z</time>
      </trkpt>
      <trkpt lat="46.7443" lon="5.78435">
        <ele>581</ele>
        <time>2022-04-04T11:58:21Z</time>
      </trkpt>
      <trkpt lat="46.74385" lon="5.78425">
        <ele>578</ele>
        <time>2022-04-04T11:58:29Z</time>
      </trkpt>
      <trkpt lat="46.7416" lon="5.78342">
        <ele>563</ele>
        <time>2022-04-04T11:59:10Z</time>
      </trkpt>
      <trkpt lat="46.74045" lon="5.78314">
        <ele>560</ele>
        <time>2022-04-04T11:59:31Z</time>
      </trkpt>
      <trkpt lat="46.73992" lon="5.78308">
        <ele>556</ele>
        <time>2022-04-04T11:59:40Z</time>
      </trkpt>
      <trkpt lat="46.73881" lon="5.78335">
        <ele>546</ele>
        <time>2022-04-04T12:00:00Z</time>
      </trkpt>
      <trkpt lat="46.73824" lon="5.7834">
        <ele>543</ele>
        <time>2022-04-04T12:00:10Z</time>
      </trkpt>
      <trkpt lat="46.73772" lon="5.78338">
        <ele>540</ele>
        <time>2022-04-04T12:00:20Z</time>
      </trkpt>
      <trkpt lat="46.73619" lon="5.78297">
        <ele>533</ele>
        <time>2022-04-04T12:00:47Z</time>
      </trkpt>
      <trkpt lat="46.73566" lon="5.78272">
        <ele>531</ele>
        <time>2022-04-04T12:00:57Z</time>
      </trkpt>
      <trkpt lat="46.73466" lon="5.7821">
        <ele>524</ele>
        <time>2022-04-04T12:01:16Z</time>
      </trkpt>
      <trkpt lat="46.73391" lon="5.78172">
        <ele>518</ele>
        <time>2022-04-04T12:01:31Z</time>
      </trkpt>
      <trkpt lat="46.73342" lon="5.78153">
        <ele>515</ele>
        <time>2022-04-04T12:01:40Z</time>
      </trkpt>
      <trkpt lat="46.73193" lon="5.78078">
        <ele>509</ele>
        <time>2022-04-04T12:02:08Z</time>
      </trkpt>
      <trkpt lat="46.73155" lon="5.78065">
        <ele>508</ele>
        <time>2022-04-04T12:02:15Z</time>
      </trkpt>
      <trkpt lat="46.72934" lon="5.78025">
        <ele>489</ele>
        <time>2022-04-04T12:02:54Z</time>
      </trkpt>
      <trkpt lat="46.72861" lon="5.78017">
        <ele>485</ele>
        <time>2022-04-04T12:03:07Z</time>
      </trkpt>
      <trkpt lat="46.7285" lon="5.78024">
        <ele>484</ele>
        <time>2022-04-04T12:03:09Z</time>
      </trkpt>
      <trkpt lat="46.7281" lon="5.78075">
        <ele>480</ele>
        <time>2022-04-04T12:03:19Z</time>
      </trkpt>
      <trkpt lat="46.72789" lon="5.78093">
        <ele>478</ele>
        <time>2022-04-04T12:03:23Z</time>
      </trkpt>
      <trkpt lat="46.72778" lon="5.78096">
        <ele>478</ele>
        <time>2022-04-04T12:03:25Z</time>
      </trkpt>
      <trkpt lat="46.72763" lon="5.78091">
        <ele>478</ele>
        <time>2022-04-04T12:03:28Z</time>
      </trkpt>
      <trkpt lat="46.72718" lon="5.78064">
        <ele>477</ele>
        <time>2022-04-04T12:03:37Z</time>
      </trkpt>
      <trkpt lat="46.72699" lon="5.78063">
        <ele>476</ele>
        <time>2022-04-04T12:03:40Z</time>
      </trkpt>
      <trkpt lat="46.72683" lon="5.7807">
        <ele>475</ele>
        <time>2022-04-04T12:03:43Z</time>
      </trkpt>
      <trkpt lat="46.72724" lon="5.78184">
        <ele>473</ele>
        <time>2022-04-04T12:03:59Z</time>
      </trkpt>
      <trkpt lat="46.72737" lon="5.78225">
        <ele>472</ele>
        <time>2022-04-04T12:04:04Z</time>
      </trkpt>
      <trkpt lat="46.72739" lon="5.78246">
        <ele>471</ele>
        <time>2022-04-04T12:04:07Z</time>
      </trkpt>
      <trkpt lat="46.72739" lon="5.78282">
        <ele>470</ele>
        <time>2022-04-04T12:04:11Z</time>
      </trkpt>
      <trkpt lat="46.72734" lon="5.78314">
        <ele>469</ele>
        <time>2022-04-04T12:04:15Z</time>
      </trkpt>
      <trkpt lat="46.72692" lon="5.78412">
        <ele>467</ele>
        <time>2022-04-04T12:04:29Z</time>
      </trkpt>
      <trkpt lat="46.7268" lon="5.7844">
        <ele>467</ele>
        <time>2022-04-04T12:04:33Z</time>
      </trkpt>
      <trkpt lat="46.72639" lon="5.78601">
        <ele>471</ele>
        <time>2022-04-04T12:04:54Z</time>
      </trkpt>
      <trkpt lat="46.72633" lon="5.78618">
        <ele>471</ele>
        <time>2022-04-04T12:04:57Z</time>
      </trkpt>
      <trkpt lat="46.72622" lon="5.78613">
        <ele>471</ele>
        <time>2022-04-04T12:04:59Z</time>
      </trkpt>
      <trkpt lat="46.72606" lon="5.78613">
        <ele>471</ele>
        <time>2022-04-04T12:05:01Z</time>
      </trkpt>
      <trkpt lat="46.72592" lon="5.78616">
        <ele>471</ele>
        <time>2022-04-04T12:05:04Z</time>
      </trkpt>
      <trkpt lat="46.72574" lon="5.78627">
        <ele>471</ele>
        <time>2022-04-04T12:05:07Z</time>
      </trkpt>
      <trkpt lat="46.72482" lon="5.78703">
        <ele>471</ele>
        <time>2022-04-04T12:05:26Z</time>
      </trkpt>
      <trkpt lat="46.72428" lon="5.78735">
        <ele>471</ele>
        <time>2022-04-04T12:05:37Z</time>
      </trkpt>
      <trkpt lat="46.72294" lon="5.7882">
        <ele>477</ele>
        <time>2022-04-04T12:06:03Z</time>
      </trkpt>
      <trkpt lat="46.72274" lon="5.78848">
        <ele>480</ele>
        <time>2022-04-04T12:06:08Z</time>
      </trkpt>
      <trkpt lat="46.72253" lon="5.78895">
        <ele>483</ele>
        <time>2022-04-04T12:06:14Z</time>
      </trkpt>
      <trkpt lat="46.72239" lon="5.78981">
        <ele>488</ele>
        <time>2022-04-04T12:06:25Z</time>
      </trkpt>
      <trkpt lat="46.72225" lon="5.79012">
        <ele>488</ele>
        <time>2022-04-04T12:06:30Z</time>
      </trkpt>
      <trkpt lat="46.72137" lon="5.79131">
        <ele>492</ele>
        <time>2022-04-04T12:06:51Z</time>
      </trkpt>
      <trkpt lat="46.72086" lon="5.79247">
        <ele>496</ele>
        <time>2022-04-04T12:07:08Z</time>
      </trkpt>
      <trkpt lat="46.72037" lon="5.79372">
        <ele>498</ele>
        <time>2022-04-04T12:07:25Z</time>
      </trkpt>
      <trkpt lat="46.71954" lon="5.79571">
        <ele>500</ele>
        <time>2022-04-04T12:07:54Z</time>
      </trkpt>
      <trkpt lat="46.7194" lon="5.79599">
        <ele>500</ele>
        <time>2022-04-04T12:07:58Z</time>
      </trkpt>
      <trkpt lat="46.71869" lon="5.79563">
        <ele>499</ele>
        <time>2022-04-04T12:08:11Z</time>
      </trkpt>
      <trkpt lat="46.71805" lon="5.79527">
        <ele>499</ele>
        <time>2022-04-04T12:08:24Z</time>
      </trkpt>
      <trkpt lat="46.71798" lon="5.79539">
        <ele>499</ele>
        <time>2022-04-04T12:08:26Z</time>
      </trkpt>
      <trkpt lat="46.71786" lon="5.79553">
        <ele>498</ele>
        <time>2022-04-04T12:08:28Z</time>
      </trkpt>
      <trkpt lat="46.71763" lon="5.79571">
        <ele>498</ele>
        <time>2022-04-04T12:08:33Z</time>
      </trkpt>
      <trkpt lat="46.71689" lon="5.79618">
        <ele>501</ele>
        <time>2022-04-04T12:08:47Z</time>
      </trkpt>
      <trkpt lat="46.71671" lon="5.79628">
        <ele>502</ele>
        <time>2022-04-04T12:08:51Z</time>
      </trkpt>
      <trkpt lat="46.71633" lon="5.7964">
        <ele>503</ele>
        <time>2022-04-04T12:08:58Z</time>
      </trkpt>
      <trkpt lat="46.71599" lon="5.79641">
        <ele>504</ele>
        <time>2022-04-04T12:09:04Z</time>
      </trkpt>
      <trkpt lat="46.7157" lon="5.79645">
        <ele>505</ele>
        <time>2022-04-04T12:09:09Z</time>
      </trkpt>
      <trkpt lat="46.71546" lon="5.79651">
        <ele>506</ele>
        <time>2022-04-04T12:09:13Z</time>
      </trkpt>
      <trkpt lat="46.71536" lon="5.79657">
        <ele>507</ele>
        <time>2022-04-04T12:09:15Z</time>
      </trkpt>
      <trkpt lat="46.71521" lon="5.79669">
        <ele>508</ele>
        <time>2022-04-04T12:09:18Z</time>
      </trkpt>
      <trkpt lat="46.71447" lon="5.79748">
        <ele>510</ele>
        <time>2022-04-04T12:09:34Z</time>
      </trkpt>
      <trkpt lat="46.71375" lon="5.79821">
        <ele>516</ele>
        <time>2022-04-04T12:09:50Z</time>
      </trkpt>
      <trkpt lat="46.71313" lon="5.79887">
        <ele>520</ele>
        <time>2022-04-04T12:10:04Z</time>
      </trkpt>
      <trkpt lat="46.71296" lon="5.79921">
        <ele>521</ele>
        <time>2022-04-04T12:10:09Z</time>
      </trkpt>
      <trkpt lat="46.71265" lon="5.79976">
        <ele>526</ele>
        <time>2022-04-04T12:10:18Z</time>
      </trkpt>
      <trkpt lat="46.71183" lon="5.8009">
        <ele>534</ele>
        <time>2022-04-04T12:10:38Z</time>
      </trkpt>
      <trkpt lat="46.71168" lon="5.80116">
        <ele>535</ele>
        <time>2022-04-04T12:10:42Z</time>
      </trkpt>
      <trkpt lat="46.71131" lon="5.80199">
        <ele>547</ele>
        <time>2022-04-04T12:10:54Z</time>
      </trkpt>
      <trkpt lat="46.71119" lon="5.80219">
        <ele>550</ele>
        <time>2022-04-04T12:10:57Z</time>
      </trkpt>
      <trkpt lat="46.71049" lon="5.80308">
        <ele>567</ele>
        <time>2022-04-04T12:11:14Z</time>
      </trkpt>
      <trkpt lat="46.71043" lon="5.80313">
        <ele>568</ele>
        <time>2022-04-04T12:11:15Z</time>
      </trkpt>
      <trkpt lat="46.71031" lon="5.80317">
        <ele>569</ele>
        <time>2022-04-04T12:11:17Z</time>
      </trkpt>
      <trkpt lat="46.71022" lon="5.80315">
        <ele>569</ele>
        <time>2022-04-04T12:11:19Z</time>
      </trkpt>
      <trkpt lat="46.71017" lon="5.80311">
        <ele>569</ele>
        <time>2022-04-04T12:11:20Z</time>
      </trkpt>
      <trkpt lat="46.71013" lon="5.80304">
        <ele>569</ele>
        <time>2022-04-04T12:11:21Z</time>
      </trkpt>
      <trkpt lat="46.71009" lon="5.80284">
        <ele>570</ele>
        <time>2022-04-04T12:11:23Z</time>
      </trkpt>
      <trkpt lat="46.7101" lon="5.80256">
        <ele>570</ele>
        <time>2022-04-04T12:11:27Z</time>
      </trkpt>
      <trkpt lat="46.71018" lon="5.80179">
        <ele>570</ele>
        <time>2022-04-04T12:11:36Z</time>
      </trkpt>
      <trkpt lat="46.71019" lon="5.80114">
        <ele>575</ele>
        <time>2022-04-04T12:11:44Z</time>
      </trkpt>
      <trkpt lat="46.71026" lon="5.80037">
        <ele>578</ele>
        <time>2022-04-04T12:11:54Z</time>
      </trkpt>
      <trkpt lat="46.71038" lon="5.7997">
        <ele>577</ele>
        <time>2022-04-04T12:12:02Z</time>
      </trkpt>
      <trkpt lat="46.71063" lon="5.79848">
        <ele>577</ele>
        <time>2022-04-04T12:12:18Z</time>
      </trkpt>
      <trkpt lat="46.71068" lon="5.79813">
        <ele>575</ele>
        <time>2022-04-04T12:12:22Z</time>
      </trkpt>
      <trkpt lat="46.71068" lon="5.79783">
        <ele>574</ele>
        <time>2022-04-04T12:12:26Z</time>
      </trkpt>
      <trkpt lat="46.71066" lon="5.7976">
        <ele>574</ele>
        <time>2022-04-04T12:12:29Z</time>
      </trkpt>
      <trkpt lat="46.71062" lon="5.79745">
        <ele>573</ele>
        <time>2022-04-04T12:12:31Z</time>
      </trkpt>
      <trkpt lat="46.71055" lon="5.79729">
        <ele>572</ele>
        <time>2022-04-04T12:12:33Z</time>
      </trkpt>
      <trkpt lat="46.71047" lon="5.79719">
        <ele>572</ele>
        <time>2022-04-04T12:12:35Z</time>
      </trkpt>
      <trkpt lat="46.71033" lon="5.79706">
        <ele>573</ele>
        <time>2022-04-04T12:12:38Z</time>
      </trkpt>
      <trkpt lat="46.7101" lon="5.79695">
        <ele>576</ele>
        <time>2022-04-04T12:12:42Z</time>
      </trkpt>
      <trkpt lat="46.70928" lon="5.7968">
        <ele>579</ele>
        <time>2022-04-04T12:12:57Z</time>
      </trkpt>
      <trkpt lat="46.7091" lon="5.7968">
        <ele>579</ele>
        <time>2022-04-04T12:13:00Z</time>
      </trkpt>
      <trkpt lat="46.70895" lon="5.79683">
        <ele>580</ele>
        <time>2022-04-04T12:13:03Z</time>
      </trkpt>
      <trkpt lat="46.70827" lon="5.79689">
        <ele>582</ele>
        <time>2022-04-04T12:13:15Z</time>
      </trkpt>
      <trkpt lat="46.70774" lon="5.79698">
        <ele>582</ele>
        <time>2022-04-04T12:13:24Z</time>
      </trkpt>
      <trkpt lat="46.70749" lon="5.79711">
        <ele>584</ele>
        <time>2022-04-04T12:13:29Z</time>
      </trkpt>
      <trkpt lat="46.70736" lon="5.79724">
        <ele>584</ele>
        <time>2022-04-04T12:13:32Z</time>
      </trkpt>
      <trkpt lat="46.7073" lon="5.79736">
        <ele>585</ele>
        <time>2022-04-04T12:13:34Z</time>
      </trkpt>
      <trkpt lat="46.70727" lon="5.79747">
        <ele>587</ele>
        <time>2022-04-04T12:13:35Z</time>
      </trkpt>
      <trkpt lat="46.70727" lon="5.79779">
        <ele>588</ele>
        <time>2022-04-04T12:13:39Z</time>
      </trkpt>
      <trkpt lat="46.70733" lon="5.79799">
        <ele>590</ele>
        <time>2022-04-04T12:13:42Z</time>
      </trkpt>
      <trkpt lat="46.70743" lon="5.79814">
        <ele>593</ele>
        <time>2022-04-04T12:13:44Z</time>
      </trkpt>
      <trkpt lat="46.7075" lon="5.7982">
        <ele>595</ele>
        <time>2022-04-04T12:13:46Z</time>
      </trkpt>
      <trkpt lat="46.70763" lon="5.79827">
        <ele>595</ele>
        <time>2022-04-04T12:13:48Z</time>
      </trkpt>
      <trkpt lat="46.70805" lon="5.79835">
        <ele>595</ele>
        <time>2022-04-04T12:13:56Z</time>
      </trkpt>
      <trkpt lat="46.70826" lon="5.79842">
        <ele>596</ele>
        <time>2022-04-04T12:13:59Z</time>
      </trkpt>
      <trkpt lat="46.70835" lon="5.79849">
        <ele>596</ele>
        <time>2022-04-04T12:14:01Z</time>
      </trkpt>
      <trkpt lat="46.70842" lon="5.79858">
        <ele>597</ele>
        <time>2022-04-04T12:14:03Z</time>
      </trkpt>
      <trkpt lat="46.70847" lon="5.79869">
        <ele>598</ele>
        <time>2022-04-04T12:14:04Z</time>
      </trkpt>
      <trkpt lat="46.70849" lon="5.79878">
        <ele>598</ele>
        <time>2022-04-04T12:14:06Z</time>
      </trkpt>
      <trkpt lat="46.7085" lon="5.79955">
        <ele>602</ele>
        <time>2022-04-04T12:14:15Z</time>
      </trkpt>
      <trkpt lat="46.70847" lon="5.8001">
        <ele>604</ele>
        <time>2022-04-04T12:14:22Z</time>
      </trkpt>
      <trkpt lat="46.70847" lon="5.80075">
        <ele>604</ele>
        <time>2022-04-04T12:14:30Z</time>
      </trkpt>
      <trkpt lat="46.70845" lon="5.80097">
        <ele>605</ele>
        <time>2022-04-04T12:14:32Z</time>
      </trkpt>
      <trkpt lat="46.70844" lon="5.80166">
        <ele>612</ele>
        <time>2022-04-04T12:14:41Z</time>
      </trkpt>
      <trkpt lat="46.70849" lon="5.80211">
        <ele>613</ele>
        <time>2022-04-04T12:14:46Z</time>
      </trkpt>
      <trkpt lat="46.70868" lon="5.80305">
        <ele>616</ele>
        <time>2022-04-04T12:14:58Z</time>
      </trkpt>
      <trkpt lat="46.70889" lon="5.8042">
        <ele>615</ele>
        <time>2022-04-04T12:15:13Z</time>
      </trkpt>
      <trkpt lat="46.70891" lon="5.80436">
        <ele>614</ele>
        <time>2022-04-04T12:15:15Z</time>
      </trkpt>
      <trkpt lat="46.70892" lon="5.80474">
        <ele>614</ele>
        <time>2022-04-04T12:15:19Z</time>
      </trkpt>
      <trkpt lat="46.70884" lon="5.80518">
        <ele>616</ele>
        <time>2022-04-04T12:15:25Z</time>
      </trkpt>
      <trkpt lat="46.7085" lon="5.80672">
        <ele>615</ele>
        <time>2022-04-04T12:15:45Z</time>
      </trkpt>
      <trkpt lat="46.70802" lon="5.80821">
        <ele>612</ele>
        <time>2022-04-04T12:16:05Z</time>
      </trkpt>
      <trkpt lat="46.70791" lon="5.80871">
        <ele>613</ele>
        <time>2022-04-04T12:16:11Z</time>
      </trkpt>
      <trkpt lat="46.70759" lon="5.81171">
        <ele>629</ele>
        <time>2022-04-04T12:16:48Z</time>
      </trkpt>
      <trkpt lat="46.70721" lon="5.81577">
        <ele>633</ele>
        <time>2022-04-04T12:17:38Z</time>
      </trkpt>
      <trkpt lat="46.7072" lon="5.81615">
        <ele>634</ele>
        <time>2022-04-04T12:17:43Z</time>
      </trkpt>
      <trkpt lat="46.70722" lon="5.81634">
        <ele>634</ele>
        <time>2022-04-04T12:17:45Z</time>
      </trkpt>
      <trkpt lat="46.70727" lon="5.81656">
        <ele>635</ele>
        <time>2022-04-04T12:17:48Z</time>
      </trkpt>
      <trkpt lat="46.70737" lon="5.81685">
        <ele>635</ele>
        <time>2022-04-04T12:17:52Z</time>
      </trkpt>
      <trkpt lat="46.71078" lon="5.82532">
        <ele>652</ele>
        <time>2022-04-04T12:19:52Z</time>
      </trkpt>
      <trkpt lat="46.71093" lon="5.82565">
        <ele>653</ele>
        <time>2022-04-04T12:19:57Z</time>
      </trkpt>
      <trkpt lat="46.71115" lon="5.8261">
        <ele>655</ele>
        <time>2022-04-04T12:20:03Z</time>
      </trkpt>
      <trkpt lat="46.71121" lon="5.82629">
        <ele>655</ele>
        <time>2022-04-04T12:20:06Z</time>
      </trkpt>
      <trkpt lat="46.71128" lon="5.82661">
        <ele>655</ele>
        <time>2022-04-04T12:20:10Z</time>
      </trkpt>
      <trkpt lat="46.71129" lon="5.82693">
        <ele>654</ele>
        <time>2022-04-04T12:20:14Z</time>
      </trkpt>
      <trkpt lat="46.71125" lon="5.82732">
        <ele>654</ele>
        <time>2022-04-04T12:20:19Z</time>
      </trkpt>
      <trkpt lat="46.71111" lon="5.82807">
        <ele>652</ele>
        <time>2022-04-04T12:20:28Z</time>
      </trkpt>
      <trkpt lat="46.71084" lon="5.82972">
        <ele>651</ele>
        <time>2022-04-04T12:20:49Z</time>
      </trkpt>
      <trkpt lat="46.7107" lon="5.83068">
        <ele>651</ele>
        <time>2022-04-04T12:21:01Z</time>
      </trkpt>
      <trkpt lat="46.71039" lon="5.83214">
        <ele>648</ele>
        <time>2022-04-04T12:21:20Z</time>
      </trkpt>
      <trkpt lat="46.71017" lon="5.83282">
        <ele>649</ele>
        <time>2022-04-04T12:21:29Z</time>
      </trkpt>
      <trkpt lat="46.70975" lon="5.83369">
        <ele>650</ele>
        <time>2022-04-04T12:21:42Z</time>
      </trkpt>
      <trkpt lat="46.70956" lon="5.83438">
        <ele>652</ele>
        <time>2022-04-04T12:21:51Z</time>
      </trkpt>
      <trkpt lat="46.70931" lon="5.83507">
        <ele>654</ele>
        <time>2022-04-04T12:22:00Z</time>
      </trkpt>
      <trkpt lat="46.70879" lon="5.83645">
        <ele>654</ele>
        <time>2022-04-04T12:22:20Z</time>
      </trkpt>
      <trkpt lat="46.70823" lon="5.83809">
        <ele>652</ele>
        <time>2022-04-04T12:22:42Z</time>
      </trkpt>
      <trkpt lat="46.70802" lon="5.83931">
        <ele>649</ele>
        <time>2022-04-04T12:22:57Z</time>
      </trkpt>
      <trkpt lat="46.7079" lon="5.83981">
        <ele>649</ele>
        <time>2022-04-04T12:23:04Z</time>
      </trkpt>
      <trkpt lat="46.70735" lon="5.84171">
        <ele>645</ele>
        <time>2022-04-04T12:23:29Z</time>
      </trkpt>
      <trkpt lat="46.70723" lon="5.84227">
        <ele>645</ele>
        <time>2022-04-04T12:23:36Z</time>
      </trkpt>
      <trkpt lat="46.70715" lon="5.84274">
        <ele>646</ele>
        <time>2022-04-04T12:23:42Z</time>
      </trkpt>
      <trkpt lat="46.70708" lon="5.84337">
        <ele>646</ele>
        <time>2022-04-04T12:23:50Z</time>
      </trkpt>
      <trkpt lat="46.70701" lon="5.84365">
        <ele>646</ele>
        <time>2022-04-04T12:23:53Z</time>
      </trkpt>
      <trkpt lat="46.70691" lon="5.84393">
        <ele>645</ele>
        <time>2022-04-04T12:23:57Z</time>
      </trkpt>
      <trkpt lat="46.70676" lon="5.84426">
        <ele>645</ele>
        <time>2022-04-04T12:24:02Z</time>
      </trkpt>
      <trkpt lat="46.70658" lon="5.84457">
        <ele>645</ele>
        <time>2022-04-04T12:24:07Z</time>
      </trkpt>
      <trkpt lat="46.70596" lon="5.84548">
        <ele>646</ele>
        <time>2022-04-04T12:24:23Z</time>
      </trkpt>
      <trkpt lat="46.7057" lon="5.84594">
        <ele>647</ele>
        <time>2022-04-04T12:24:30Z</time>
      </trkpt>
      <trkpt lat="46.70528" lon="5.84684">
        <ele>645</ele>
        <time>2022-04-04T12:24:43Z</time>
      </trkpt>
      <trkpt lat="46.7049" lon="5.84773">
        <ele>645</ele>
        <time>2022-04-04T12:24:56Z</time>
      </trkpt>
      <trkpt lat="46.70473" lon="5.84806">
        <ele>645</ele>
        <time>2022-04-04T12:25:01Z</time>
      </trkpt>
      <trkpt lat="46.70457" lon="5.8483">
        <ele>645</ele>
        <time>2022-04-04T12:25:05Z</time>
      </trkpt>
      <trkpt lat="46.70432" lon="5.84861">
        <ele>646</ele>
        <time>2022-04-04T12:25:11Z</time>
      </trkpt>
      <trkpt lat="46.70413" lon="5.8488">
        <ele>646</ele>
        <time>2022-04-04T12:25:15Z</time>
      </trkpt>
      <trkpt lat="46.70395" lon="5.84894">
        <ele>646</ele>
        <time>2022-04-04T12:25:19Z</time>
      </trkpt>
      <trkpt lat="46.70346" lon="5.84927">
        <ele>645</ele>
        <time>2022-04-04T12:25:28Z</time>
      </trkpt>
      <trkpt lat="46.70327" lon="5.84953">
        <ele>646</ele>
        <time>2022-04-04T12:25:33Z</time>
      </trkpt>
      <trkpt lat="46.70247" lon="5.85112">
        <ele>652</ele>
        <time>2022-04-04T12:25:57Z</time>
      </trkpt>
      <trkpt lat="46.70242" lon="5.85127">
        <ele>652</ele>
        <time>2022-04-04T12:25:59Z</time>
      </trkpt>
      <trkpt lat="46.70236" lon="5.85151">
        <ele>652</ele>
        <time>2022-04-04T12:26:02Z</time>
      </trkpt>
      <trkpt lat="46.70235" lon="5.85177">
        <ele>652</ele>
        <time>2022-04-04T12:26:05Z</time>
      </trkpt>
      <trkpt lat="46.70239" lon="5.85209">
        <ele>652</ele>
        <time>2022-04-04T12:26:09Z</time>
      </trkpt>
      <trkpt lat="46.70263" lon="5.85296">
        <ele>652</ele>
        <time>2022-04-04T12:26:21Z</time>
      </trkpt>
      <trkpt lat="46.70273" lon="5.85363">
        <ele>652</ele>
        <time>2022-04-04T12:26:29Z</time>
      </trkpt>
      <trkpt lat="46.70286" lon="5.85555">
        <ele>662</ele>
        <time>2022-04-04T12:26:53Z</time>
      </trkpt>
      <trkpt lat="46.70285" lon="5.85598">
        <ele>665</ele>
        <time>2022-04-04T12:26:58Z</time>
      </trkpt>
      <trkpt lat="46.70261" lon="5.85943">
        <ele>679</ele>
        <time>2022-04-04T12:27:40Z</time>
      </trkpt>
      <trkpt lat="46.7026" lon="5.85999">
        <ele>681</ele>
        <time>2022-04-04T12:27:47Z</time>
      </trkpt>
      <trkpt lat="46.70265" lon="5.86176">
        <ele>690</ele>
        <time>2022-04-04T12:28:09Z</time>
      </trkpt>
      <trkpt lat="46.70246" lon="5.8636">
        <ele>693</ele>
        <time>2022-04-04T12:28:31Z</time>
      </trkpt>
      <trkpt lat="46.70221" lon="5.86826">
        <ele>691</ele>
        <time>2022-04-04T12:29:28Z</time>
      </trkpt>
      <trkpt lat="46.70231" lon="5.86913">
        <ele>691</ele>
        <time>2022-04-04T12:29:39Z</time>
      </trkpt>
      <trkpt lat="46.70275" lon="5.87132">
        <ele>688</ele>
        <time>2022-04-04T12:30:07Z</time>
      </trkpt>
      <trkpt lat="46.70317" lon="5.87302">
        <ele>688</ele>
        <time>2022-04-04T12:30:29Z</time>
      </trkpt>
      <trkpt lat="46.70393" lon="5.87519">
        <ele>686</ele>
        <time>2022-04-04T12:30:59Z</time>
      </trkpt>
      <trkpt lat="46.70495" lon="5.87768">
        <ele>691</ele>
        <time>2022-04-04T12:31:34Z</time>
      </trkpt>
      <trkpt lat="46.70492" lon="5.87772">
        <ele>691</ele>
        <time>2022-04-04T12:31:35Z</time>
      </trkpt>
      <trkpt lat="46.70492" lon="5.87782">
        <ele>691</ele>
        <time>2022-04-04T12:31:36Z</time>
      </trkpt>
      <trkpt lat="46.70497" lon="5.87787">
        <ele>691</ele>
        <time>2022-04-04T12:31:37Z</time>
      </trkpt>
      <trkpt lat="46.70503" lon="5.87784">
        <ele>691</ele>
        <time>2022-04-04T12:31:38Z</time>
      </trkpt>
      <trkpt lat="46.70546" lon="5.87813">
        <ele>691</ele>
        <time>2022-04-04T12:31:47Z</time>
      </trkpt>
      <trkpt lat="46.70588" lon="5.87849">
        <ele>689</ele>
        <time>2022-04-04T12:31:55Z</time>
      </trkpt>
      <trkpt lat="46.70596" lon="5.87858">
        <ele>688</ele>
        <time>2022-04-04T12:31:57Z</time>
      </trkpt>
      <trkpt lat="46.70607" lon="5.87875">
        <ele>688</ele>
        <time>2022-04-04T12:32:00Z</time>
      </trkpt>
      <trkpt lat="46.70621" lon="5.87907">
        <ele>687</ele>
        <time>2022-04-04T12:32:05Z</time>
      </trkpt>
      <trkpt lat="46.7063" lon="5.87922">
        <ele>687</ele>
        <time>2022-04-04T12:32:07Z</time>
      </trkpt>
      <trkpt lat="46.70638" lon="5.87933">
        <ele>687</ele>
        <time>2022-04-04T12:32:09Z</time>
      </trkpt>
      <trkpt lat="46.70681" lon="5.87962">
        <ele>685</ele>
        <time>2022-04-04T12:32:18Z</time>
      </trkpt>
      <trkpt lat="46.70696" lon="5.87976">
        <ele>685</ele>
        <time>2022-04-04T12:32:21Z</time>
      </trkpt>
      <trkpt lat="46.70749" lon="5.88044">
        <ele>685</ele>
        <time>2022-04-04T12:32:33Z</time>
      </trkpt>
      <trkpt lat="46.70785" lon="5.88073">
        <ele>685</ele>
        <time>2022-04-04T12:32:41Z</time>
      </trkpt>
      <trkpt lat="46.70791" lon="5.88081">
        <ele>685</ele>
        <time>2022-04-04T12:32:42Z</time>
      </trkpt>
      <trkpt lat="46.70798" lon="5.88096">
        <ele>685</ele>
        <time>2022-04-04T12:32:44Z</time>
      </trkpt>
      <trkpt lat="46.7081" lon="5.88148">
        <ele>683</ele>
        <time>2022-04-04T12:32:51Z</time>
      </trkpt>
      <trkpt lat="46.70822" lon="5.88187">
        <ele>683</ele>
        <time>2022-04-04T12:32:56Z</time>
      </trkpt>
      <trkpt lat="46.70835" lon="5.88244">
        <ele>683</ele>
        <time>2022-04-04T12:33:04Z</time>
      </trkpt>
      <trkpt lat="46.70823" lon="5.88254">
        <ele>683</ele>
        <time>2022-04-04T12:33:06Z</time>
      </trkpt>
      <trkpt lat="46.70813" lon="5.88272">
        <ele>684</ele>
        <time>2022-04-04T12:33:09Z</time>
      </trkpt>
      <trkpt lat="46.70764" lon="5.8837">
        <ele>687</ele>
        <time>2022-04-04T12:33:24Z</time>
      </trkpt>
      <trkpt lat="46.70759" lon="5.88384">
        <ele>687</ele>
        <time>2022-04-04T12:33:26Z</time>
      </trkpt>
      <trkpt lat="46.70753" lon="5.88409">
        <ele>687</ele>
        <time>2022-04-04T12:33:29Z</time>
      </trkpt>
      <trkpt lat="46.70752" lon="5.88447">
        <ele>688</ele>
        <time>2022-04-04T12:33:33Z</time>
      </trkpt>
      <trkpt lat="46.70753" lon="5.88459">
        <ele>689</ele>
        <time>2022-04-04T12:33:35Z</time>
      </trkpt>
      <trkpt lat="46.70778" lon="5.88534">
        <ele>693</ele>
        <time>2022-04-04T12:33:45Z</time>
      </trkpt>
      <trkpt lat="46.70791" lon="5.88632">
        <ele>696</ele>
        <time>2022-04-04T12:33:57Z</time>
      </trkpt>
      <trkpt lat="46.70794" lon="5.88683">
        <ele>696</ele>
        <time>2022-04-04T12:34:03Z</time>
      </trkpt>
      <trkpt lat="46.70791" lon="5.8871">
        <ele>696</ele>
        <time>2022-04-04T12:34:07Z</time>
      </trkpt>
      <trkpt lat="46.70785" lon="5.8873">
        <ele>696</ele>
        <time>2022-04-04T12:34:09Z</time>
      </trkpt>
    </trkseg>
  </trk>
</gpx>